Weather Underground® Station Historical Data


Station Historical Data For Bruceton, TN. (K3JAE's Weather Station - KTNBRUCE2)
Daily Summary for:  January 03, 2018 Units:  Both    English   Metric
« Previous Day
Next Day »
Daily Weekly Monthly Yearly Custom
  High: Low: Average:
Temperature: 33.1 °F /  0.6 °C 15.2 °F /  -9.3 °C 23 °F /  -5 °C
Dew Point: 13.8 °F /  -10.1 °C 8.5 °F /  -13.1 °C 11.1 °F /  -11.6 °C
Humidity: 81% 38% 62%
Wind Speed: 14.0mph /  22.5km/h - 4.2mph /  6.8km/h
Wind Gust: 14.0mph /  22.5km/h - -
Wind- - West
Pressure: 30.43 in /  1030.4 hPa 30.20 in /  1022.6 hPa -
Precipitation: 0.00 in /  0 mm    
Historical Graphs
 
 
Tabular Data for:  January 03, 2018
Time Temperature Dew Point Pressure Wind Wind Speed Wind Gust Humidity Rainfall Rate (Hourly) solar Conditions
00:01 16.2 °F /  -8.8 °C 10.8 °F /  -11.8 °C 30.43in /  1030.4hPa Calm     79% 0.00in /  0mm 0.0 W/m2 FEW
00:02 16.2 °F /  -8.8 °C 10.8 °F /  -11.8 °C 30.43in /  1030.4hPa Calm     79% 0.00in /  0mm 0.0 W/m2 FEW
00:07 16.1 °F /  -8.8 °C 10.4 °F /  -12 °C 30.42in /  1030hPa Calm     78% 0.00in /  0mm 0.0 W/m2 FEW
00:12 16.0 °F /  -8.9 °C 10.1 °F /  -12.2 °C 30.42in /  1030hPa Calm     77% 0.00in /  0mm 0.0 W/m2 FEW
00:15 16.0 °F /  -8.9 °C 10.1 °F /  -12.2 °C 30.42in /  1030hPa Calm     77% 0.00in /  0mm 0.0 W/m2 FEW
00:16 15.9 °F /  -8.9 °C 10.0 °F /  -12.2 °C 30.41in /  1029.7hPa Calm     77% 0.00in /  0mm 0.0 W/m2 FEW
00:21 15.8 °F /  -9 °C 10.2 °F /  -12.1 °C 30.41in /  1029.7hPa Calm     78% 0.00in /  0mm 0.0 W/m2 FEW
00:24 15.8 °F /  -9 °C 10.2 °F /  -12.1 °C 30.41in /  1029.7hPa Calm     78% 0.00in /  0mm 0.0 W/m2 FEW
00:25 15.7 °F /  -9.1 °C 10.1 °F /  -12.2 °C 30.41in /  1029.7hPa Calm     78% 0.00in /  0mm 0.0 W/m2 FEW
00:30 15.5 °F /  -9.2 °C 10.4 °F /  -12 °C 30.41in /  1029.7hPa Calm     80% 0.00in /  0mm 0.0 W/m2 FEW
00:35 15.4 °F /  -9.2 °C 10.3 °F /  -12.1 °C 30.41in /  1029.7hPa ENE 1.2mph /  1.9km/h 1.2mph /  1.9km/h 80% 0.00in /  0mm 0.0 W/m2 FEW
00:36 15.4 °F /  -9.2 °C 10.3 °F /  -12.1 °C 30.41in /  1029.7hPa ENE 1.2mph /  1.9km/h 1.2mph /  1.9km/h 80% 0.00in /  0mm 0.0 W/m2 FEW
00:39 15.3 °F /  -9.3 °C 10.5 °F /  -11.9 °C 30.41in /  1029.7hPa ENE 1.2mph /  1.9km/h   81% 0.00in /  0mm 0.0 W/m2 FEW
00:43 15.3 °F /  -9.3 °C 10.2 °F /  -12.1 °C 30.41in /  1029.7hPa Calm     80% 0.00in /  0mm 0.0 W/m2 FEW
00:50 15.2 °F /  -9.3 °C 10.1 °F /  -12.2 °C 30.40in /  1029.3hPa Calm     80% 0.00in /  0mm 0.0 W/m2 FEW
01:00 15.2 °F /  -9.3 °C 10.1 °F /  -12.2 °C 30.40in /  1029.3hPa Calm     80% 0.00in /  0mm 0.0 W/m2 SCT
01:01 15.2 °F /  -9.3 °C 10.1 °F /  -12.2 °C 30.40in /  1029.3hPa Calm     80% 0.00in /  0mm 0.0 W/m2 SCT
01:06 15.2 °F /  -9.3 °C 9.9 °F /  -12.3 °C 30.40in /  1029.3hPa Calm     79% 0.00in /  0mm 0.0 W/m2 SCT
01:09 15.2 °F /  -9.3 °C 9.9 °F /  -12.3 °C 30.41in /  1029.7hPa Calm     79% 0.00in /  0mm 0.0 W/m2 SCT
01:13 15.2 °F /  -9.3 °C 9.6 °F /  -12.4 °C 30.41in /  1029.7hPa Calm     78% 0.00in /  0mm 0.0 W/m2 SCT
01:14 15.2 °F /  -9.3 °C 9.6 °F /  -12.4 °C 30.41in /  1029.7hPa Calm     78% 0.00in /  0mm 0.0 W/m2 SCT
01:19 15.2 °F /  -9.3 °C 9.6 °F /  -12.4 °C 30.40in /  1029.3hPa Calm     78% 0.00in /  0mm 0.0 W/m2 SCT
01:22 15.2 °F /  -9.3 °C 9.3 °F /  -12.6 °C 30.41in /  1029.7hPa Calm     77% 0.00in /  0mm 0.0 W/m2 SCT
01:25 15.2 °F /  -9.3 °C 9.3 °F /  -12.6 °C 30.41in /  1029.7hPa ENE 1.2mph /  1.9km/h 1.2mph /  1.9km/h 77% 0.00in /  0mm 0.0 W/m2 SCT
01:30 15.3 °F /  -9.3 °C 9.4 °F /  -12.6 °C 30.41in /  1029.7hPa Calm     77% 0.00in /  0mm 0.0 W/m2 SCT
01:33 15.4 °F /  -9.2 °C 9.5 °F /  -12.5 °C 30.41in /  1029.7hPa Calm     77% 0.00in /  0mm 0.0 W/m2 SCT
01:38 15.5 °F /  -9.2 °C 9.6 °F /  -12.4 °C 30.41in /  1029.7hPa Calm     77% 0.00in /  0mm 0.0 W/m2 SCT
01:39 15.5 °F /  -9.2 °C 9.6 °F /  -12.4 °C 30.41in /  1029.7hPa Calm     77% 0.00in /  0mm 0.0 W/m2 SCT
01:41 15.5 °F /  -9.2 °C 9.6 °F /  -12.4 °C 30.41in /  1029.7hPa Calm     77% 0.00in /  0mm 0.0 W/m2 SCT
01:46 15.5 °F /  -9.2 °C 9.6 °F /  -12.4 °C 30.41in /  1029.7hPa Calm     77% 0.00in /  0mm 0.0 W/m2 SCT
01:47 15.6 °F /  -9.1 °C 10.0 °F /  -12.2 °C 30.41in /  1029.7hPa Calm     78% 0.00in /  0mm 0.0 W/m2 SCT
01:49 15.6 °F /  -9.1 °C 10.0 °F /  -12.2 °C 30.41in /  1029.7hPa Calm     78% 0.00in /  0mm 0.0 W/m2 SCT
01:54 15.8 °F /  -9 °C 10.4 °F /  -12 °C 30.40in /  1029.3hPa Calm     79% 0.00in /  0mm 0.0 W/m2 SCT
02:01 15.9 °F /  -8.9 °C 10.5 °F /  -11.9 °C 30.40in /  1029.3hPa ENE 2.3mph /  3.7km/h 2.3mph /  3.7km/h 79% 0.00in /  0mm 0.0 W/m2 OVC
02:02 15.9 °F /  -8.9 °C 10.5 °F /  -11.9 °C 30.40in /  1029.3hPa ENE 2.3mph /  3.7km/h 2.3mph /  3.7km/h 79% 0.00in /  0mm 0.0 W/m2 OVC
02:07 15.9 °F /  -8.9 °C 10.8 °F /  -11.8 °C 30.40in /  1029.3hPa Calm     80% 0.00in /  0mm 0.0 W/m2 OVC
02:12 15.9 °F /  -8.9 °C 11.1 °F /  -11.6 °C 30.40in /  1029.3hPa ENE 1.2mph /  1.9km/h 1.2mph /  1.9km/h 81% 0.00in /  0mm 0.0 W/m2 OVC
02:13 15.9 °F /  -8.9 °C 11.1 °F /  -11.6 °C 30.40in /  1029.3hPa ENE 2.3mph /  3.7km/h 2.3mph /  3.7km/h 81% 0.00in /  0mm 0.0 W/m2 OVC
02:19 15.9 °F /  -8.9 °C 11.1 °F /  -11.6 °C 30.40in /  1029.3hPa ENE 1.2mph /  1.9km/h 1.2mph /  1.9km/h 81% 0.00in /  0mm 0.0 W/m2 OVC
02:24 16.0 °F /  -8.9 °C 10.9 °F /  -11.7 °C 30.40in /  1029.3hPa Calm     80% 0.00in /  0mm 0.0 W/m2 OVC
02:27 16.0 °F /  -8.9 °C 10.6 °F /  -11.9 °C 30.40in /  1029.3hPa Calm     79% 0.00in /  0mm 0.0 W/m2 OVC
02:29 16.1 °F /  -8.8 °C 10.7 °F /  -11.8 °C 30.40in /  1029.3hPa Calm     79% 0.00in /  0mm 0.0 W/m2 OVC
02:34 16.3 °F /  -8.7 °C 10.6 °F /  -11.9 °C 30.40in /  1029.3hPa ENE 2.3mph /  3.7km/h 2.3mph /  3.7km/h 78% 0.00in /  0mm 0.0 W/m2 OVC
02:36 16.3 °F /  -8.7 °C 10.4 °F /  -12 °C 30.40in /  1029.3hPa ENE 1.2mph /  1.9km/h   77% 0.00in /  0mm 0.0 W/m2 OVC
02:37 16.3 °F /  -8.7 °C 10.1 °F /  -12.2 °C 30.40in /  1029.3hPa Calm     76% 0.00in /  0mm 0.0 W/m2 OVC
02:42 16.5 °F /  -8.6 °C 10.3 °F /  -12.1 °C 30.40in /  1029.3hPa ENE 1.2mph /  1.9km/h 1.2mph /  1.9km/h 76% 0.00in /  0mm 0.0 W/m2 OVC
02:47 16.6 °F /  -8.6 °C 10.6 °F /  -11.9 °C 30.41in /  1029.7hPa ENE 2.0mph /  3.2km/h 2.0mph /  3.2km/h 77% 0.00in /  0mm 0.0 W/m2 OVC
02:48 16.6 °F /  -8.6 °C 10.6 °F /  -11.9 °C 30.41in /  1029.7hPa ENE 2.3mph /  3.7km/h 2.3mph /  3.7km/h 77% 0.00in /  0mm 0.0 W/m2 OVC
02:53 16.7 °F /  -8.5 °C 10.4 °F /  -12 °C 30.41in /  1029.7hPa ENE 2.3mph /  3.7km/h 2.3mph /  3.7km/h 76% 0.00in /  0mm 0.0 W/m2 OVC
02:54 16.8 °F /  -8.4 °C 10.2 °F /  -12.1 °C 30.41in /  1029.7hPa ENE 2.3mph /  3.7km/h 2.3mph /  3.7km/h 75% 0.00in /  0mm 0.0 W/m2 OVC
02:59 16.8 °F /  -8.4 °C 9.9 °F /  -12.3 °C 30.41in /  1029.7hPa ENE 2.3mph /  3.7km/h 2.3mph /  3.7km/h 74% 0.00in /  0mm 0.0 W/m2 OVC
03:02 16.9 °F /  -8.4 °C 10.6 °F /  -11.9 °C 30.41in /  1029.7hPa ENE 2.3mph /  3.7km/h 2.3mph /  3.7km/h 76% 0.00in /  0mm 0.0 W/m2 OVC
03:05 16.9 °F /  -8.4 °C 10.6 °F /  -11.9 °C 30.42in /  1030hPa ENE 3.5mph /  5.6km/h 3.5mph /  5.6km/h 76% 0.00in /  0mm 0.0 W/m2 OVC
03:11 16.9 °F /  -8.4 °C 10.3 °F /  -12.1 °C 30.42in /  1030hPa NW 3.5mph /  5.6km/h 3.5mph /  5.6km/h 75% 0.00in /  0mm 0.0 W/m2 OVC
03:15 17.0 °F /  -8.3 °C 10.1 °F /  -12.2 °C 30.42in /  1030hPa NW 4.0mph /  6.4km/h 4.0mph /  6.4km/h 74% 0.00in /  0mm 0.0 W/m2 OVC
03:18 16.9 °F /  -8.4 °C 9.7 °F /  -12.4 °C 30.42in /  1030hPa NW 2.3mph /  3.7km/h 2.3mph /  3.7km/h 73% 0.00in /  0mm 0.0 W/m2 OVC
03:23 17.0 °F /  -8.3 °C 9.8 °F /  -12.3 °C 30.41in /  1029.7hPa NW 2.0mph /  3.2km/h 2.0mph /  3.2km/h 73% 0.00in /  0mm 0.0 W/m2 OVC
03:24 17.0 °F /  -8.3 °C 9.8 °F /  -12.3 °C 30.41in /  1029.7hPa NW 2.3mph /  3.7km/h 2.3mph /  3.7km/h 73% 0.00in /  0mm 0.0 W/m2 OVC
03:29 17.0 °F /  -8.3 °C 9.5 °F /  -12.5 °C 30.41in /  1029.7hPa NW 1.2mph /  1.9km/h 1.2mph /  1.9km/h 72% 0.00in /  0mm 0.0 W/m2 OVC
03:36 17.1 °F /  -8.3 °C 9.6 °F /  -12.4 °C 30.40in /  1029.3hPa NW 1.2mph /  1.9km/h 1.2mph /  1.9km/h 72% 0.00in /  0mm 0.0 W/m2 OVC
03:37 17.1 °F /  -8.3 °C 9.3 °F /  -12.6 °C 30.40in /  1029.3hPa NW 2.3mph /  3.7km/h 2.3mph /  3.7km/h 71% 0.00in /  0mm 0.0 W/m2 OVC
03:42 17.2 °F /  -8.2 °C 9.7 °F /  -12.4 °C 30.40in /  1029.3hPa NW 2.3mph /  3.7km/h 2.3mph /  3.7km/h 72% 0.00in /  0mm 0.0 W/m2 OVC
03:43 17.2 °F /  -8.2 °C 9.7 °F /  -12.4 °C 30.40in /  1029.3hPa NW 2.3mph /  3.7km/h 2.3mph /  3.7km/h 72% 0.00in /  0mm 0.0 W/m2 OVC
03:48 17.3 °F /  -8.2 °C 10.1 °F /  -12.2 °C 30.39in /  1029hPa NW 2.3mph /  3.7km/h 2.3mph /  3.7km/h 73% 0.00in /  0mm 0.0 W/m2 OVC
03:49 17.3 °F /  -8.2 °C 10.1 °F /  -12.2 °C 30.39in /  1029hPa NW 2.3mph /  3.7km/h 2.3mph /  3.7km/h 73% 0.00in /  0mm 0.0 W/m2 OVC
03:54 17.3 °F /  -8.2 °C 10.1 °F /  -12.2 °C 30.39in /  1029hPa Calm     73% 0.00in /  0mm 0.0 W/m2 OVC
03:55 17.3 °F /  -8.2 °C 10.1 °F /  -12.2 °C 30.39in /  1029hPa Calm     73% 0.00in /  0mm 0.0 W/m2 OVC
04:00 17.3 °F /  -8.2 °C 10.1 °F /  -12.2 °C 30.39in /  1029hPa NW 3.5mph /  5.6km/h 3.5mph /  5.6km/h 73% 0.00in /  0mm 0.0 W/m2 OVC
04:05 17.3 °F /  -8.2 °C 10.1 °F /  -12.2 °C 30.40in /  1029.3hPa NW 3.5mph /  5.6km/h 3.5mph /  5.6km/h 73% 0.00in /  0mm 0.0 W/m2 OVC
04:06 17.3 °F /  -8.2 °C 10.1 °F /  -12.2 °C 30.40in /  1029.3hPa NW 3.5mph /  5.6km/h 3.5mph /  5.6km/h 73% 0.00in /  0mm 0.0 W/m2 OVC
04:07 17.4 °F /  -8.1 °C 10.2 °F /  -12.1 °C 30.40in /  1029.3hPa NW 2.3mph /  3.7km/h 2.3mph /  3.7km/h 73% 0.00in /  0mm 0.0 W/m2 OVC
04:13 17.4 °F /  -8.1 °C 10.2 °F /  -12.1 °C 30.40in /  1029.3hPa NW 2.3mph /  3.7km/h 2.3mph /  3.7km/h 73% 0.00in /  0mm 0.0 W/m2 OVC
04:15 17.4 °F /  -8.1 °C 10.2 °F /  -12.1 °C 30.40in /  1029.3hPa NW 2.3mph /  3.7km/h 2.3mph /  3.7km/h 73% 0.00in /  0mm 0.0 W/m2 OVC
04:20 17.4 °F /  -8.1 °C 10.2 °F /  -12.1 °C 30.40in /  1029.3hPa WNW 2.0mph /  3.2km/h 5.0mph /  8km/h 73% 0.00in /  0mm 0.0 W/m2 OVC
04:21 17.5 °F /  -8.1 °C 10.3 °F /  -12.1 °C 30.40in /  1029.3hPa WNW 3.5mph /  5.6km/h 3.5mph /  5.6km/h 73% 0.00in /  0mm 0.0 W/m2 OVC
04:25 17.4 °F /  -8.1 °C 10.2 °F /  -12.1 °C 30.40in /  1029.3hPa WNW 3.5mph /  5.6km/h 3.5mph /  5.6km/h 73% 0.00in /  0mm 0.0 W/m2 OVC
04:27 17.4 °F /  -8.1 °C 10.2 °F /  -12.1 °C 30.39in /  1029hPa WNW 3.5mph /  5.6km/h 3.5mph /  5.6km/h 73% 0.00in /  0mm 0.0 W/m2 OVC
04:32 17.5 °F /  -8.1 °C 10.3 °F /  -12.1 °C 30.39in /  1029hPa WNW 1.2mph /  1.9km/h   73% 0.00in /  0mm 0.0 W/m2 OVC
04:33 17.4 °F /  -8.1 °C 10.2 °F /  -12.1 °C 30.39in /  1029hPa WNW 1.2mph /  1.9km/h 1.2mph /  1.9km/h 73% 0.00in /  0mm 0.0 W/m2 OVC
04:38 17.4 °F /  -8.1 °C 10.2 °F /  -12.1 °C 30.39in /  1029hPa WNW 2.3mph /  3.7km/h 2.3mph /  3.7km/h 73% 0.00in /  0mm 0.0 W/m2 OVC
04:40 17.5 °F /  -8.1 °C 10.3 °F /  -12.1 °C 30.39in /  1029hPa WNW 2.3mph /  3.7km/h 2.3mph /  3.7km/h 73% 0.00in /  0mm 0.0 W/m2 OVC
04:42 17.4 °F /  -8.1 °C 10.2 °F /  -12.1 °C 30.39in /  1029hPa WNW 1.2mph /  1.9km/h 1.2mph /  1.9km/h 73% 0.00in /  0mm 0.0 W/m2 OVC
04:46 17.5 °F /  -8.1 °C 10.3 °F /  -12.1 °C 30.39in /  1029hPa WNW 2.3mph /  3.7km/h   73% 0.00in /  0mm 0.0 W/m2 OVC
04:50 17.4 °F /  -8.1 °C 9.9 °F /  -12.3 °C 30.38in /  1028.7hPa WNW 1.2mph /  1.9km/h 1.2mph /  1.9km/h 72% 0.00in /  0mm 0.0 W/m2 OVC
04:51 17.4 °F /  -8.1 °C 9.9 °F /  -12.3 °C 30.38in /  1028.7hPa WNW 1.2mph /  1.9km/h 1.2mph /  1.9km/h 72% 0.00in /  0mm 0.0 W/m2 OVC
04:56 17.4 °F /  -8.1 °C 10.2 °F /  -12.1 °C 30.39in /  1029hPa WNW 2.3mph /  3.7km/h 2.3mph /  3.7km/h 73% 0.00in /  0mm 0.0 W/m2 OVC
05:02 17.4 °F /  -8.1 °C 10.2 °F /  -12.1 °C 30.39in /  1029hPa WNW 2.3mph /  3.7km/h 2.3mph /  3.7km/h 73% 0.00in /  0mm 0.0 W/m2 OVC
05:03 17.4 °F /  -8.1 °C 10.2 °F /  -12.1 °C 30.39in /  1029hPa WNW 1.2mph /  1.9km/h   73% 0.00in /  0mm 0.0 W/m2 OVC
05:08 17.3 °F /  -8.2 °C 10.1 °F /  -12.2 °C 30.38in /  1028.7hPa WNW 1.2mph /  1.9km/h   73% 0.00in /  0mm 0.0 W/m2 OVC
05:13 17.3 °F /  -8.2 °C 10.1 °F /  -12.2 °C 30.38in /  1028.7hPa Calm     73% 0.00in /  0mm 0.0 W/m2 OVC
05:15 17.3 °F /  -8.2 °C 10.4 °F /  -12 °C 30.38in /  1028.7hPa Calm     74% 0.00in /  0mm 0.0 W/m2 OVC
05:16 17.3 °F /  -8.2 °C 10.4 °F /  -12 °C 30.38in /  1028.7hPa Calm     74% 0.00in /  0mm 0.0 W/m2 OVC
05:21 17.3 °F /  -8.2 °C 10.1 °F /  -12.2 °C 30.37in /  1028.3hPa Calm     73% 0.00in /  0mm 0.0 W/m2 OVC
05:22 17.4 °F /  -8.1 °C 10.5 °F /  -11.9 °C 30.37in /  1028.3hPa Calm   0.2mph /  0.3km/h 74% 0.00in /  0mm 0.0 W/m2 OVC
05:27 17.4 °F /  -8.1 °C 10.5 °F /  -11.9 °C 30.37in /  1028.3hPa Calm     74% 0.00in /  0mm 0.0 W/m2 OVC
05:32 17.4 °F /  -8.1 °C 10.5 °F /  -11.9 °C 30.37in /  1028.3hPa West 1.2mph /  1.9km/h   74% 0.00in /  0mm 0.0 W/m2 OVC
05:37 17.4 °F /  -8.1 °C 10.5 °F /  -11.9 °C 30.37in /  1028.3hPa West 3.5mph /  5.6km/h 3.5mph /  5.6km/h 74% 0.00in /  0mm 0.0 W/m2 OVC
05:38 17.5 °F /  -8.1 °C 10.6 °F /  -11.9 °C 30.37in /  1028.3hPa West 3.5mph /  5.6km/h 3.5mph /  5.6km/h 74% 0.00in /  0mm 0.0 W/m2 OVC
05:43 17.4 °F /  -8.1 °C 10.5 °F /  -11.9 °C 30.37in /  1028.3hPa West 2.0mph /  3.2km/h 2.0mph /  3.2km/h 74% 0.00in /  0mm 0.0 W/m2 OVC
05:44 17.4 °F /  -8.1 °C 10.2 °F /  -12.1 °C 30.37in /  1028.3hPa West 3.5mph /  5.6km/h 3.5mph /  5.6km/h 73% 0.00in /  0mm 0.0 W/m2 OVC
05:47 17.4 °F /  -8.1 °C 10.5 °F /  -11.9 °C 30.37in /  1028.3hPa West 1.2mph /  1.9km/h 1.2mph /  1.9km/h 74% 0.00in /  0mm 0.0 W/m2 OVC
05:52 17.3 °F /  -8.2 °C 10.4 °F /  -12 °C 30.36in /  1028hPa SW 4.0mph /  6.4km/h 4.0mph /  6.4km/h 74% 0.00in /  0mm 0.0 W/m2 OVC
05:53 17.4 °F /  -8.1 °C 10.2 °F /  -12.1 °C 30.36in /  1028hPa SW 3.5mph /  5.6km/h 3.5mph /  5.6km/h 73% 0.00in /  0mm 0.0 W/m2 OVC
05:57 17.4 °F /  -8.1 °C 10.5 °F /  -11.9 °C 30.36in /  1028hPa SW 2.3mph /  3.7km/h 2.3mph /  3.7km/h 74% 0.00in /  0mm 0.0 W/m2 OVC
05:58 17.4 °F /  -8.1 °C 10.5 °F /  -11.9 °C 30.36in /  1028hPa SW 2.3mph /  3.7km/h 2.3mph /  3.7km/h 74% 0.00in /  0mm 0.0 W/m2 OVC
06:03 17.4 °F /  -8.1 °C 10.5 °F /  -11.9 °C 30.35in /  1027.7hPa SW 3.5mph /  5.6km/h 3.5mph /  5.6km/h 74% 0.00in /  0mm 0.0 W/m2 BKN
06:05 17.4 °F /  -8.1 °C 10.5 °F /  -11.9 °C 30.35in /  1027.7hPa SW 2.0mph /  3.2km/h 5.0mph /  8km/h 74% 0.00in /  0mm 0.0 W/m2 BKN
06:10 17.4 °F /  -8.1 °C 10.2 °F /  -12.1 °C 30.35in /  1027.7hPa SSW 2.3mph /  3.7km/h 2.3mph /  3.7km/h 73% 0.00in /  0mm 0.0 W/m2 BKN
06:12 17.4 °F /  -8.1 °C 10.2 °F /  -12.1 °C 30.35in /  1027.7hPa SSW 2.3mph /  3.7km/h 2.3mph /  3.7km/h 73% 0.00in /  0mm 0.0 W/m2 BKN
06:17 17.4 °F /  -8.1 °C 9.9 °F /  -12.3 °C 30.35in /  1027.7hPa SSW 3.0mph /  4.8km/h 3.0mph /  4.8km/h 72% 0.00in /  0mm 0.0 W/m2 BKN
06:18 17.4 °F /  -8.1 °C 9.9 °F /  -12.3 °C 30.35in /  1027.7hPa SSW 3.5mph /  5.6km/h 3.5mph /  5.6km/h 72% 0.00in /  0mm 0.0 W/m2 BKN
06:23 17.5 °F /  -8.1 °C 10.0 °F /  -12.2 °C 30.35in /  1027.7hPa SSW 2.3mph /  3.7km/h 2.3mph /  3.7km/h 72% 0.00in /  0mm 0.0 W/m2 BKN
06:24 17.5 °F /  -8.1 °C 10.0 °F /  -12.2 °C 30.35in /  1027.7hPa SSW 3.5mph /  5.6km/h 3.5mph /  5.6km/h 72% 0.00in /  0mm 0.0 W/m2 BKN
06:29 17.6 °F /  -8 °C 10.1 °F /  -12.2 °C 30.34in /  1027.3hPa SSW 2.3mph /  3.7km/h   72% 0.00in /  0mm 0.0 W/m2 BKN
06:31 17.6 °F /  -8 °C 10.1 °F /  -12.2 °C 30.34in /  1027.3hPa SSW 3.5mph /  5.6km/h 3.5mph /  5.6km/h 72% 0.00in /  0mm 0.0 W/m2 BKN
06:36 17.7 °F /  -7.9 °C 10.2 °F /  -12.1 °C 30.34in /  1027.3hPa SSW 3.5mph /  5.6km/h 3.5mph /  5.6km/h 72% 0.00in /  0mm 0.0 W/m2 BKN
06:39 17.7 °F /  -7.9 °C 10.2 °F /  -12.1 °C 30.35in /  1027.7hPa SSW 3.5mph /  5.6km/h 3.5mph /  5.6km/h 72% 0.00in /  0mm 0.0 W/m2 BKN
06:41 17.7 °F /  -7.9 °C 10.2 °F /  -12.1 °C 30.35in /  1027.7hPa SSW 3.5mph /  5.6km/h 3.5mph /  5.6km/h 72% 0.00in /  0mm 0.0 W/m2 BKN
06:44 17.7 °F /  -7.9 °C 10.2 °F /  -12.1 °C 30.35in /  1027.7hPa SSW 2.3mph /  3.7km/h 2.3mph /  3.7km/h 72% 0.00in /  0mm 0.0 W/m2 BKN
06:46 17.7 °F /  -7.9 °C 10.2 °F /  -12.1 °C 30.35in /  1027.7hPa SSW 2.3mph /  3.7km/h 2.3mph /  3.7km/h 72% 0.00in /  0mm 0.0 W/m2 BKN
06:51 17.7 °F /  -7.9 °C 10.2 °F /  -12.1 °C 30.34in /  1027.3hPa SSW 2.3mph /  3.7km/h 2.3mph /  3.7km/h 72% 0.00in /  0mm 0.0 W/m2 BKN
06:52 17.7 °F /  -7.9 °C 10.2 °F /  -12.1 °C 30.34in /  1027.3hPa SSW 2.3mph /  3.7km/h 2.3mph /  3.7km/h 72% 0.00in /  0mm 0.0 W/m2 BKN
06:57 17.7 °F /  -7.9 °C 9.9 °F /  -12.3 °C 30.34in /  1027.3hPa SSW 4.6mph /  7.4km/h 4.6mph /  7.4km/h 71% 0.00in /  0mm 0.0 W/m2 BKN
06:58 17.7 °F /  -7.9 °C 9.9 °F /  -12.3 °C 30.34in /  1027.3hPa SSW 5.0mph /  8km/h 5.0mph /  8km/h 71% 0.00in /  0mm 0.0 W/m2 BKN
07:03 17.8 °F /  -7.9 °C 10.0 °F /  -12.2 °C 30.34in /  1027.3hPa SW 3.5mph /  5.6km/h 3.5mph /  5.6km/h 71% 0.00in /  0mm 0.0 W/m2 OVC
07:08 17.9 °F /  -7.8 °C 10.4 °F /  -12 °C 30.34in /  1027.3hPa SW 2.3mph /  3.7km/h 2.3mph /  3.7km/h 72% 0.00in /  0mm 0.0 W/m2 OVC
07:09 17.9 °F /  -7.8 °C 10.4 °F /  -12 °C 30.34in /  1027.3hPa SW 2.3mph /  3.7km/h 2.3mph /  3.7km/h 72% 0.00in /  0mm 0.0 W/m2 OVC
07:14 18.0 °F /  -7.8 °C 9.9 °F /  -12.3 °C 30.34in /  1027.3hPa SW 4.6mph /  7.4km/h 4.6mph /  7.4km/h 70% 0.00in /  0mm 0.0 W/m2 OVC
07:16 18.0 °F /  -7.8 °C 10.2 °F /  -12.1 °C 30.34in /  1027.3hPa SW 3.5mph /  5.6km/h 3.5mph /  5.6km/h 71% 0.00in /  0mm 0.0 W/m2 OVC
07:20 18.0 °F /  -7.8 °C 9.9 °F /  -12.3 °C 30.33in /  1027hPa SW 6.0mph /  9.7km/h 6.0mph /  9.7km/h 70% 0.00in /  0mm 0.0 W/m2 OVC
07:22 18.0 °F /  -7.8 °C 9.5 °F /  -12.5 °C 30.34in /  1027.3hPa SW 5.8mph /  9.3km/h 5.8mph /  9.3km/h 69% 0.00in /  0mm 5.0 W/m2 OVC
07:27 18.0 °F /  -7.8 °C 9.9 °F /  -12.3 °C 30.34in /  1027.3hPa SW 4.6mph /  7.4km/h 4.6mph /  7.4km/h 70% 0.00in /  0mm 7.0 W/m2 OVC
07:32 18.1 °F /  -7.7 °C 10.0 °F /  -12.2 °C 30.34in /  1027.3hPa SW 3.5mph /  5.6km/h 3.5mph /  5.6km/h 70% 0.00in /  0mm 11.0 W/m2 OVC
07:33 18.1 °F /  -7.7 °C 10.0 °F /  -12.2 °C 30.34in /  1027.3hPa SW 3.5mph /  5.6km/h 3.5mph /  5.6km/h 70% 0.00in /  0mm 11.0 W/m2 OVC
07:38 18.3 °F /  -7.6 °C 10.5 °F /  -11.9 °C 30.34in /  1027.3hPa SW 3.5mph /  5.6km/h 3.5mph /  5.6km/h 71% 0.00in /  0mm 12.0 W/m2 OVC
07:43 18.4 °F /  -7.6 °C 10.2 °F /  -12.1 °C 30.34in /  1027.3hPa SW 3.5mph /  5.6km/h 3.5mph /  5.6km/h 70% 0.00in /  0mm 16.0 W/m2 OVC
07:48 18.5 °F /  -7.5 °C 10.3 °F /  -12.1 °C 30.34in /  1027.3hPa SW 3.0mph /  4.8km/h 3.0mph /  4.8km/h 70% 0.00in /  0mm 26.0 W/m2 OVC
07:49 18.5 °F /  -7.5 °C 10.3 °F /  -12.1 °C 30.34in /  1027.3hPa SW 3.5mph /  5.6km/h 3.5mph /  5.6km/h 70% 0.00in /  0mm 28.0 W/m2 OVC
07:54 18.6 °F /  -7.4 °C 10.4 °F /  -12 °C 30.34in /  1027.3hPa SW 1.2mph /  1.9km/h 1.2mph /  1.9km/h 70% 0.00in /  0mm 37.0 W/m2 OVC
07:55 18.6 °F /  -7.4 °C 10.4 °F /  -12 °C 30.34in /  1027.3hPa SW 1.2mph /  1.9km/h 1.2mph /  1.9km/h 70% 0.00in /  0mm 39.0 W/m2 OVC
07:56 18.7 °F /  -7.4 °C 10.5 °F /  -11.9 °C 30.34in /  1027.3hPa SW 1.2mph /  1.9km/h 1.2mph /  1.9km/h 70% 0.00in /  0mm 42.0 W/m2 OVC
08:03 18.9 °F /  -7.3 °C 10.4 °F /  -12 °C 30.34in /  1027.3hPa WSW 3.5mph /  5.6km/h 3.5mph /  5.6km/h 69% 0.00in /  0mm 39.0 W/m2 BKN
08:09 18.9 °F /  -7.3 °C 10.4 °F /  -12 °C 30.34in /  1027.3hPa WSW 3.5mph /  5.6km/h 3.5mph /  5.6km/h 69% 0.00in /  0mm 37.0 W/m2 BKN
08:16 19.0 °F /  -7.2 °C 9.8 °F /  -12.3 °C 30.34in /  1027.3hPa SW 5.0mph /  8km/h 5.0mph /  8km/h 67% 0.00in /  0mm 47.0 W/m2 BKN
08:22 19.0 °F /  -7.2 °C 10.2 °F /  -12.1 °C 30.34in /  1027.3hPa WSW 3.5mph /  5.6km/h 3.5mph /  5.6km/h 68% 0.00in /  0mm 56.0 W/m2 BKN
08:27 19.2 °F /  -7.1 °C 10.0 °F /  -12.2 °C 30.34in /  1027.3hPa WSW 2.3mph /  3.7km/h 2.3mph /  3.7km/h 67% 0.00in /  0mm 58.0 W/m2 BKN
08:28 19.2 °F /  -7.1 °C 10.0 °F /  -12.2 °C 30.34in /  1027.3hPa SW 4.0mph /  6.4km/h 4.0mph /  6.4km/h 67% 0.00in /  0mm 67.0 W/m2 BKN
08:29 19.3 °F /  -7.1 °C 10.1 °F /  -12.2 °C 30.34in /  1027.3hPa SW 3.5mph /  5.6km/h 3.5mph /  5.6km/h 67% 0.00in /  0mm 76.0 W/m2 BKN
08:34 19.5 °F /  -6.9 °C 10.0 °F /  -12.2 °C 30.34in /  1027.3hPa SW 5.0mph /  8km/h 5.0mph /  8km/h 66% 0.00in /  0mm 113.0 W/m2 BKN
08:36 19.6 °F /  -6.9 °C 10.1 °F /  -12.2 °C 30.34in /  1027.3hPa SW 4.6mph /  7.4km/h 4.6mph /  7.4km/h 66% 0.00in /  0mm 116.0 W/m2 BKN
08:42 19.9 °F /  -6.7 °C 10.0 °F /  -12.2 °C 30.34in /  1027.3hPa WSW 6.0mph /  9.7km/h 6.0mph /  9.7km/h 65% 0.00in /  0mm 137.0 W/m2 BKN
08:44 20.1 °F /  -6.6 °C 10.2 °F /  -12.1 °C 30.35in /  1027.7hPa WSW 5.8mph /  9.3km/h 5.8mph /  9.3km/h 65% 0.00in /  0mm 151.0 W/m2 BKN
08:48 20.4 °F /  -6.4 °C 10.1 °F /  -12.2 °C 30.34in /  1027.3hPa WSW 2.3mph /  3.7km/h 2.3mph /  3.7km/h 64% 0.00in /  0mm 197.0 W/m2 BKN
08:53 20.8 °F /  -6.2 °C 10.2 °F /  -12.1 °C 30.34in /  1027.3hPa WSW 3.5mph /  5.6km/h 3.5mph /  5.6km/h 63% 0.00in /  0mm 192.0 W/m2 BKN
08:55 21.1 °F /  -6.1 °C 10.1 °F /  -12.2 °C 30.34in /  1027.3hPa SW 3.5mph /  5.6km/h 3.5mph /  5.6km/h 62% 0.00in /  0mm 148.0 W/m2 BKN
08:58 21.2 °F /  -6 °C 9.8 °F /  -12.3 °C 30.34in /  1027.3hPa WSW 6.9mph /  11.1km/h 6.9mph /  11.1km/h 61% 0.00in /  0mm 144.0 W/m2 BKN
09:01 21.3 °F /  -5.9 °C 9.9 °F /  -12.3 °C 30.34in /  1027.3hPa WSW 3.5mph /  5.6km/h 3.5mph /  5.6km/h 61% 0.00in /  0mm 230.0 W/m2 OVC
09:05 21.7 °F /  -5.7 °C 9.9 °F /  -12.3 °C 30.34in /  1027.3hPa WSW 5.0mph /  8km/h 5.0mph /  8km/h 60% 0.00in /  0mm 156.0 W/m2 OVC
09:07 21.7 °F /  -5.7 °C 9.6 °F /  -12.4 °C 30.34in /  1027.3hPa SW 4.6mph /  7.4km/h 4.6mph /  7.4km/h 59% 0.00in /  0mm 111.0 W/m2 OVC
09:12 21.6 °F /  -5.8 °C 9.8 °F /  -12.3 °C 30.34in /  1027.3hPa SW 3.5mph /  5.6km/h 3.5mph /  5.6km/h 60% 0.00in /  0mm 137.0 W/m2 OVC
09:13 21.6 °F /  -5.8 °C 9.5 °F /  -12.5 °C 30.34in /  1027.3hPa SW 3.5mph /  5.6km/h 3.5mph /  5.6km/h 59% 0.00in /  0mm 144.0 W/m2 OVC
09:16 21.6 °F /  -5.8 °C 9.5 °F /  -12.5 °C 30.34in /  1027.3hPa SW 3.5mph /  5.6km/h 3.5mph /  5.6km/h 59% 0.00in /  0mm 113.0 W/m2 OVC
09:19 21.8 °F /  -5.7 °C 9.7 °F /  -12.4 °C 30.34in /  1027.3hPa SW 4.0mph /  6.4km/h 4.0mph /  6.4km/h 59% 0.00in /  0mm 77.0 W/m2 OVC
09:24 21.8 °F /  -5.7 °C 9.3 °F /  -12.6 °C 30.34in /  1027.3hPa SSW 3.5mph /  5.6km/h 3.5mph /  5.6km/h 58% 0.00in /  0mm 111.0 W/m2 OVC
09:29 22.0 °F /  -5.6 °C 9.5 °F /  -12.5 °C 30.34in /  1027.3hPa SW 4.6mph /  7.4km/h 4.6mph /  7.4km/h 58% 0.00in /  0mm 76.0 W/m2 OVC
09:31 22.1 °F /  -5.5 °C 9.6 °F /  -12.4 °C 30.34in /  1027.3hPa SW 3.5mph /  5.6km/h 3.5mph /  5.6km/h 58% 0.00in /  0mm 84.0 W/m2 OVC
09:37 22.1 °F /  -5.5 °C 9.6 °F /  -12.4 °C 30.33in /  1027hPa WSW 3.5mph /  5.6km/h 3.5mph /  5.6km/h 58% 0.00in /  0mm 121.0 W/m2 OVC
09:42 22.4 °F /  -5.3 °C 9.8 °F /  -12.3 °C 30.33in /  1027hPa SW 5.8mph /  9.3km/h 5.8mph /  9.3km/h 58% 0.00in /  0mm 141.0 W/m2 OVC
09:44 22.5 °F /  -5.3 °C 9.5 °F /  -12.5 °C 30.33in /  1027hPa SW 4.0mph /  6.4km/h 4.0mph /  6.4km/h 57% 0.00in /  0mm 130.0 W/m2 OVC
09:49 22.7 °F /  -5.2 °C 9.3 °F /  -12.6 °C 30.33in /  1027hPa SW 3.5mph /  5.6km/h 3.5mph /  5.6km/h 56% 0.00in /  0mm 135.0 W/m2 OVC
09:50 22.8 °F /  -5.1 °C 9.4 °F /  -12.6 °C 30.33in /  1027hPa SW 3.5mph /  5.6km/h 3.5mph /  5.6km/h 56% 0.00in /  0mm 139.0 W/m2 OVC
09:55 22.8 °F /  -5.1 °C 9.4 °F /  -12.6 °C 30.33in /  1027hPa West 4.0mph /  6.4km/h 4.0mph /  6.4km/h 56% 0.00in /  0mm 134.0 W/m2 OVC
10:01 22.9 °F /  -5.1 °C 9.1 °F /  -12.7 °C 30.33in /  1027hPa SW 4.6mph /  7.4km/h 4.6mph /  7.4km/h 55% 0.00in /  0mm 141.0 W/m2 SCT
10:06 23.0 °F /  -5 °C 8.8 °F /  -12.9 °C 30.33in /  1027hPa SW 4.6mph /  7.4km/h 4.6mph /  7.4km/h 54% 0.00in /  0mm 172.0 W/m2 SCT
10:08 23.1 °F /  -4.9 °C 8.9 °F /  -12.8 °C 30.33in /  1027hPa SW 3.5mph /  5.6km/h 3.5mph /  5.6km/h 54% 0.00in /  0mm 174.0 W/m2 SCT
10:13 23.3 °F /  -4.8 °C 9.1 °F /  -12.7 °C 30.33in /  1027hPa WSW 3.5mph /  5.6km/h 3.5mph /  5.6km/h 54% 0.00in /  0mm 172.0 W/m2 SCT
10:15 23.4 °F /  -4.8 °C 9.2 °F /  -12.7 °C 30.33in /  1027hPa WSW 4.0mph /  6.4km/h 4.0mph /  6.4km/h 54% 0.00in /  0mm 174.0 W/m2 SCT
10:20 23.6 °F /  -4.7 °C 8.5 °F /  -13.1 °C 30.32in /  1026.6hPa West 6.0mph /  9.7km/h 6.0mph /  9.7km/h 52% 0.00in /  0mm 200.0 W/m2 SCT
10:22 23.6 °F /  -4.7 °C 8.5 °F /  -13.1 °C 30.32in /  1026.6hPa West 4.0mph /  6.4km/h 4.0mph /  6.4km/h 52% 0.00in /  0mm 204.0 W/m2 SCT
10:24 23.7 °F /  -4.6 °C 9.0 °F /  -12.8 °C 30.32in /  1026.6hPa West 5.8mph /  9.3km/h 6.2mph /  10km/h 53% 0.00in /  0mm 213.0 W/m2 SCT
10:29 24.0 °F /  -4.4 °C 9.3 °F /  -12.6 °C 30.32in /  1026.6hPa WSW 7.0mph /  11.3km/h 7.0mph /  11.3km/h 53% 0.00in /  0mm 225.0 W/m2 SCT
10:30 24.0 °F /  -4.4 °C 8.9 °F /  -12.8 °C 30.32in /  1026.6hPa WSW 6.9mph /  11.1km/h 6.9mph /  11.1km/h 52% 0.00in /  0mm 223.0 W/m2 SCT
10:35 24.1 °F /  -4.4 °C 9.0 °F /  -12.8 °C 30.31in /  1026.3hPa WSW 3.5mph /  5.6km/h 3.5mph /  5.6km/h 52% 0.00in /  0mm 213.0 W/m2 SCT
10:36 24.1 °F /  -4.4 °C 9.0 °F /  -12.8 °C 30.31in /  1026.3hPa WSW 4.0mph /  6.4km/h 4.0mph /  6.4km/h 52% 0.00in /  0mm 220.0 W/m2 SCT
10:41 24.5 °F /  -4.2 °C 9.4 °F /  -12.6 °C 30.31in /  1026.3hPa SW 5.0mph /  8km/h 5.0mph /  8km/h 52% 0.00in /  0mm 260.0 W/m2 SCT
10:42 24.5 °F /  -4.2 °C 9.4 °F /  -12.6 °C 30.31in /  1026.3hPa West 6.0mph /  9.7km/h 6.0mph /  9.7km/h 52% 0.00in /  0mm 271.0 W/m2 SCT
10:46 24.9 °F /  -3.9 °C 9.3 °F /  -12.6 °C 30.31in /  1026.3hPa SSW 3.5mph /  5.6km/h 3.5mph /  5.6km/h 51% 0.00in /  0mm 193.0 W/m2 SCT
10:47 24.9 °F /  -3.9 °C 9.3 °F /  -12.6 °C 30.31in /  1026.3hPa SSW 3.5mph /  5.6km/h 3.5mph /  5.6km/h 51% 0.00in /  0mm 181.0 W/m2 SCT
10:52 25.2 °F /  -3.8 °C 9.6 °F /  -12.4 °C 30.31in /  1026.3hPa West 8.1mph /  13km/h 8.1mph /  13km/h 51% 0.00in /  0mm 367.0 W/m2 SCT
10:53 25.4 °F /  -3.7 °C 10.2 °F /  -12.1 °C 30.30in /  1026hPa West 4.0mph /  6.4km/h 4.0mph /  6.4km/h 52% 0.00in /  0mm 308.0 W/m2 SCT
10:58 26.0 °F /  -3.3 °C 10.3 °F /  -12.1 °C 30.30in /  1026hPa WSW 4.6mph /  7.4km/h 4.6mph /  7.4km/h 51% 0.00in /  0mm 367.0 W/m2 SCT
11:00 26.1 °F /  -3.3 °C 10.4 °F /  -12 °C 30.29in /  1025.6hPa West 8.0mph /  12.9km/h 8.0mph /  12.9km/h 51% 0.00in /  0mm 348.0 W/m2 SCT
11:03 26.3 °F /  -3.2 °C 10.2 °F /  -12.1 °C 30.29in /  1025.6hPa WSW 4.6mph /  7.4km/h 4.6mph /  7.4km/h 50% 0.00in /  0mm 388.0 W/m2 CLR
11:08 26.6 °F /  -3 °C 10.4 °F /  -12 °C 30.28in /  1025.3hPa WSW 9.2mph /  14.8km/h 9.2mph /  14.8km/h 50% 0.00in /  0mm 436.0 W/m2 CLR
11:13 27.1 °F /  -2.7 °C 10.4 °F /  -12 °C 30.28in /  1025.3hPa West 11.5mph /  18.5km/h 11.5mph /  18.5km/h 49% 0.00in /  0mm 508.0 W/m2 CLR
11:14 27.2 °F /  -2.7 °C 10.5 °F /  -11.9 °C 30.28in /  1025.3hPa West 9.2mph /  14.8km/h 9.2mph /  14.8km/h 49% 0.00in /  0mm 508.0 W/m2 CLR
11:19 27.3 °F /  -2.6 °C 10.6 °F /  -11.9 °C 30.27in /  1024.9hPa WSW 8.1mph /  13km/h 8.1mph /  13km/h 49% 0.00in /  0mm 450.0 W/m2 CLR
11:20 27.3 °F /  -2.6 °C 10.6 °F /  -11.9 °C 30.27in /  1024.9hPa WNW 6.9mph /  11.1km/h 6.9mph /  11.1km/h 49% 0.00in /  0mm 489.0 W/m2 CLR
11:26 27.8 °F /  -2.3 °C 11.1 °F /  -11.6 °C 30.27in /  1024.9hPa West 9.2mph /  14.8km/h 9.2mph /  14.8km/h 49% 0.00in /  0mm 517.0 W/m2 CLR
11:31 27.8 °F /  -2.3 °C 10.6 °F /  -11.9 °C 30.27in /  1024.9hPa West 9.2mph /  14.8km/h 9.2mph /  14.8km/h 48% 0.00in /  0mm 519.0 W/m2 CLR
11:36 28.4 °F /  -2 °C 11.2 °F /  -11.6 °C 30.26in /  1024.6hPa WSW 6.0mph /  9.7km/h 6.0mph /  9.7km/h 48% 0.00in /  0mm 522.0 W/m2 CLR
11:41 28.5 °F /  -1.9 °C 11.3 °F /  -11.5 °C 30.26in /  1024.6hPa WSW 11.0mph /  17.7km/h 11.0mph /  17.7km/h 48% 0.00in /  0mm 524.0 W/m2 CLR
11:42 28.4 °F /  -2 °C 10.7 °F /  -11.8 °C 30.26in /  1024.6hPa WSW 12.7mph /  20.4km/h 12.7mph /  20.4km/h 47% 0.00in /  0mm 524.0 W/m2 CLR
11:48 28.6 °F /  -1.9 °C 10.9 °F /  -11.7 °C 30.25in /  1024.3hPa West 11.5mph /  18.5km/h 11.5mph /  18.5km/h 47% 0.00in /  0mm 527.0 W/m2 CLR
11:49 28.9 °F /  -1.7 °C 10.7 °F /  -11.8 °C 30.25in /  1024.3hPa WSW 13.8mph /  22.2km/h 13.8mph /  22.2km/h 46% 0.00in /  0mm 526.0 W/m2 CLR
11:54 29.0 °F /  -1.7 °C 9.8 °F /  -12.3 °C 30.25in /  1024.3hPa West 10.4mph /  16.7km/h 10.4mph /  16.7km/h 44% 0.00in /  0mm 526.0 W/m2 CLR
11:58 29.2 °F /  -1.6 °C 10.5 °F /  -11.9 °C 30.24in /  1023.9hPa West 8.1mph /  13km/h 8.1mph /  13km/h 45% 0.00in /  0mm 526.0 W/m2 CLR
12:03 29.7 °F /  -1.3 °C 10.9 °F /  -11.7 °C 30.23in /  1023.6hPa WSW 6.9mph /  11.1km/h 6.9mph /  11.1km/h 45% 0.00in /  0mm 527.0 W/m2 FEW
12:04 29.7 °F /  -1.3 °C 10.9 °F /  -11.7 °C 30.23in /  1023.6hPa WSW 6.9mph /  11.1km/h 6.9mph /  11.1km/h 45% 0.00in /  0mm 527.0 W/m2 FEW
12:09 30.3 °F /  -0.9 °C 10.4 °F /  -12 °C 30.23in /  1023.6hPa West 8.1mph /  13km/h 8.1mph /  13km/h 43% 0.00in /  0mm 527.0 W/m2 FEW
12:10 30.3 °F /  -0.9 °C 10.4 °F /  -12 °C 30.23in /  1023.6hPa West 5.8mph /  9.3km/h 5.8mph /  9.3km/h 43% 0.00in /  0mm 527.0 W/m2 FEW
12:15 30.3 °F /  -0.9 °C 9.9 °F /  -12.3 °C 30.23in /  1023.6hPa WSW 9.2mph /  14.8km/h 9.2mph /  14.8km/h 42% 0.00in /  0mm 526.0 W/m2 FEW
12:17 30.3 °F /  -0.9 °C 9.4 °F /  -12.6 °C 30.23in /  1023.6hPa West 11.5mph /  18.5km/h 11.5mph /  18.5km/h 41% 0.00in /  0mm 524.0 W/m2 FEW
12:23 30.4 °F /  -0.9 °C 10.0 °F /  -12.2 °C 30.22in /  1023.2hPa WSW 5.8mph /  9.3km/h 5.8mph /  9.3km/h 42% 0.00in /  0mm 522.0 W/m2 FEW
12:26 30.6 °F /  -0.8 °C 9.7 °F /  -12.4 °C 30.22in /  1023.2hPa SW 4.6mph /  7.4km/h 4.6mph /  7.4km/h 41% 0.00in /  0mm 522.0 W/m2 FEW
12:29 30.6 °F /  -0.8 °C 9.7 °F /  -12.4 °C 30.22in /  1023.2hPa West 10.4mph /  16.7km/h 10.4mph /  16.7km/h 41% 0.00in /  0mm 520.0 W/m2 FEW
12:32 30.7 °F /  -0.7 °C 9.7 °F /  -12.4 °C 30.22in /  1023.2hPa West 8.1mph /  13km/h 8.1mph /  13km/h 41% 0.00in /  0mm 519.0 W/m2 FEW
12:37 31.5 °F /  -0.3 °C 9.9 °F /  -12.3 °C 30.22in /  1023.2hPa WNW 8.1mph /  13km/h 8.1mph /  13km/h 40% 0.00in /  0mm 517.0 W/m2 FEW
12:39 31.6 °F /  -0.2 °C 10.0 °F /  -12.2 °C 30.22in /  1023.2hPa West 9.2mph /  14.8km/h 9.2mph /  14.8km/h 40% 0.00in /  0mm 513.0 W/m2 FEW
12:44 31.6 °F /  -0.2 °C 9.4 °F /  -12.6 °C 30.22in /  1023.2hPa West 10.4mph /  16.7km/h 10.4mph /  16.7km/h 39% 0.00in /  0mm 510.0 W/m2 FEW
12:45 31.5 °F /  -0.3 °C 9.4 °F /  -12.6 °C 30.22in /  1023.2hPa West 11.5mph /  18.5km/h 11.5mph /  18.5km/h 39% 0.00in /  0mm 510.0 W/m2 FEW
12:50 31.6 °F /  -0.2 °C 8.9 °F /  -12.8 °C 30.22in /  1023.2hPa West 11.5mph /  18.5km/h 11.5mph /  18.5km/h 38% 0.00in /  0mm 506.0 W/m2 FEW
12:51 31.5 °F /  -0.3 °C 8.8 °F /  -12.9 °C 30.22in /  1023.2hPa West 11.5mph /  18.5km/h 11.5mph /  18.5km/h 38% 0.00in /  0mm 506.0 W/m2 FEW
12:56 31.3 °F /  -0.4 °C 9.2 °F /  -12.7 °C 30.22in /  1023.2hPa WSW 11.5mph /  18.5km/h 11.5mph /  18.5km/h 39% 0.00in /  0mm 501.0 W/m2 FEW
12:57 31.3 °F /  -0.4 °C 9.2 °F /  -12.7 °C 30.22in /  1023.2hPa West 11.5mph /  18.5km/h 11.5mph /  18.5km/h 39% 0.00in /  0mm 499.0 W/m2 FEW
13:02 31.3 °F /  -0.4 °C 9.2 °F /  -12.7 °C 30.21in /  1022.9hPa West 11.5mph /  18.5km/h 11.5mph /  18.5km/h 39% 0.00in /  0mm 494.0 W/m2 CLR
13:05 31.1 °F /  -0.5 °C 9.0 °F /  -12.8 °C 30.22in /  1023.2hPa West 12.7mph /  20.4km/h 12.7mph /  20.4km/h 39% 0.00in /  0mm 490.0 W/m2 CLR
13:08 30.9 °F /  -0.6 °C 8.8 °F /  -12.9 °C 30.21in /  1022.9hPa West 11.5mph /  18.5km/h 11.5mph /  18.5km/h 39% 0.00in /  0mm 487.0 W/m2 CLR
13:10 31.1 °F /  -0.5 °C 9.0 °F /  -12.8 °C 30.21in /  1022.9hPa West 9.2mph /  14.8km/h 9.2mph /  14.8km/h 39% 0.00in /  0mm 485.0 W/m2 CLR
13:15 31.8 °F /  -0.1 °C 10.7 °F /  -11.8 °C 30.21in /  1022.9hPa WNW 11.5mph /  18.5km/h 11.5mph /  18.5km/h 41% 0.00in /  0mm 478.0 W/m2 CLR
13:17 32.1 °F /  0.1 °C 10.5 °F /  -11.9 °C 30.21in /  1022.9hPa West 12.7mph /  20.4km/h 12.7mph /  20.4km/h 40% 0.00in /  0mm 476.0 W/m2 CLR
13:22 31.9 °F /  -0.1 °C 9.7 °F /  -12.4 °C 30.21in /  1022.9hPa WNW 10.4mph /  16.7km/h 10.4mph /  16.7km/h 39% 0.00in /  0mm 471.0 W/m2 CLR
13:27 32.0 °F /  0 °C 9.8 °F /  -12.3 °C 30.21in /  1022.9hPa West 8.1mph /  13km/h 8.1mph /  13km/h 39% 0.00in /  0mm 462.0 W/m2 CLR
13:28 32.0 °F /  0 °C 9.8 °F /  -12.3 °C 30.21in /  1022.9hPa West 8.1mph /  13km/h 8.1mph /  13km/h 39% 0.00in /  0mm 462.0 W/m2 CLR
13:33 32.1 °F /  0.1 °C 9.9 °F /  -12.3 °C 30.21in /  1022.9hPa West 8.1mph /  13km/h 8.1mph /  13km/h 39% 0.00in /  0mm 455.0 W/m2 CLR
13:37 32.2 °F /  0.1 °C 10.5 °F /  -11.9 °C 30.21in /  1022.9hPa West 11.5mph /  18.5km/h 11.5mph /  18.5km/h 40% 0.00in /  0mm 448.0 W/m2 CLR
13:42 32.1 °F /  0.1 °C 10.5 °F /  -11.9 °C 30.21in /  1022.9hPa West 8.1mph /  13km/h 8.1mph /  13km/h 40% 0.00in /  0mm 439.0 W/m2 CLR
13:47 32.0 °F /  0 °C 10.4 °F /  -12 °C 30.21in /  1022.9hPa WSW 14.0mph /  22.5km/h 14.0mph /  22.5km/h 40% 0.00in /  0mm 431.0 W/m2 CLR
13:48 31.8 °F /  -0.1 °C 10.2 °F /  -12.1 °C 30.21in /  1022.9hPa WSW 13.8mph /  22.2km/h 13.8mph /  22.2km/h 40% 0.00in /  0mm 427.0 W/m2 CLR
13:53 31.6 °F /  -0.2 °C 10.6 °F /  -11.9 °C 30.21in /  1022.9hPa WNW 8.1mph /  13km/h 8.1mph /  13km/h 41% 0.00in /  0mm 420.0 W/m2 CLR
13:55 31.7 °F /  -0.2 °C 10.7 °F /  -11.8 °C 30.21in /  1022.9hPa WSW 8.1mph /  13km/h 8.1mph /  13km/h 41% 0.00in /  0mm 417.0 W/m2 CLR
13:58 31.6 °F /  -0.2 °C 10.6 °F /  -11.9 °C 30.21in /  1022.9hPa WSW 1.2mph /  1.9km/h 1.2mph /  1.9km/h 41% 0.00in /  0mm 411.0 W/m2 CLR
14:02 32.2 °F /  0.1 °C 11.6 °F /  -11.3 °C 30.20in /  1022.6hPa West 6.9mph /  11.1km/h 6.9mph /  11.1km/h 42% 0.00in /  0mm 403.0 W/m2 CLR
14:07 32.6 °F /  0.3 °C 11.5 °F /  -11.4 °C 30.20in /  1022.6hPa West 8.1mph /  13km/h 8.1mph /  13km/h 41% 0.00in /  0mm 392.0 W/m2 CLR
14:12 32.9 °F /  0.5 °C 11.2 °F /  -11.6 °C 30.20in /  1022.6hPa WSW 6.9mph /  11.1km/h 6.9mph /  11.1km/h 40% 0.00in /  0mm 383.0 W/m2 CLR
14:17 33.1 °F /  0.6 °C 11.4 °F /  -11.4 °C 30.20in /  1022.6hPa WSW 10.0mph /  16.1km/h 10.0mph /  16.1km/h 40% 0.00in /  0mm 371.0 W/m2 CLR
14:22 32.5 °F /  0.3 °C 10.8 °F /  -11.8 °C 30.20in /  1022.6hPa West 10.4mph /  16.7km/h 10.4mph /  16.7km/h 40% 0.00in /  0mm 360.0 W/m2 CLR
14:23 32.5 °F /  0.3 °C 10.8 °F /  -11.8 °C 30.20in /  1022.6hPa NW 9.2mph /  14.8km/h 9.2mph /  14.8km/h 40% 0.00in /  0mm 359.0 W/m2 CLR
14:25 32.7 °F /  0.4 °C 11.6 °F /  -11.3 °C 30.20in /  1022.6hPa WNW 11.5mph /  18.5km/h 11.5mph /  18.5km/h 41% 0.00in /  0mm 350.0 W/m2 CLR
14:29 32.5 °F /  0.3 °C 10.8 °F /  -11.8 °C 30.20in /  1022.6hPa NW 11.5mph /  18.5km/h 11.5mph /  18.5km/h 40% 0.00in /  0mm 330.0 W/m2 CLR
14:34 32.5 °F /  0.3 °C 10.8 °F /  -11.8 °C 30.20in /  1022.6hPa West 11.5mph /  18.5km/h 11.5mph /  18.5km/h 40% 0.00in /  0mm 304.0 W/m2 CLR
14:36 32.5 °F /  0.3 °C 10.8 °F /  -11.8 °C 30.21in /  1022.9hPa WNW 11.5mph /  18.5km/h 11.5mph /  18.5km/h 40% 0.00in /  0mm 306.0 W/m2 CLR
14:40 32.5 °F /  0.3 °C 10.8 °F /  -11.8 °C 30.20in /  1022.6hPa West 11.0mph /  17.7km/h 11.0mph /  17.7km/h 40% 0.00in /  0mm 285.0 W/m2 CLR
14:45 32.2 °F /  0.1 °C 11.1 °F /  -11.6 °C 30.20in /  1022.6hPa West 9.0mph /  14.5km/h 9.0mph /  14.5km/h 41% 0.00in /  0mm 165.0 W/m2 CLR
14:50 32.0 °F /  0 °C 10.9 °F /  -11.7 °C 30.21in /  1022.9hPa WNW 8.1mph /  13km/h 8.1mph /  13km/h 41% 0.00in /  0mm 192.0 W/m2 CLR
14:51 32.0 °F /  0 °C 11.5 °F /  -11.4 °C 30.21in /  1022.9hPa West 8.1mph /  13km/h 8.1mph /  13km/h 42% 0.00in /  0mm 135.0 W/m2 CLR
14:56 32.1 °F /  0.1 °C 11.6 °F /  -11.3 °C 30.21in /  1022.9hPa WNW 5.8mph /  9.3km/h 5.8mph /  9.3km/h 42% 0.00in /  0mm 72.0 W/m2 CLR
15:01 32.0 °F /  0 °C 11.5 °F /  -11.4 °C 30.21in /  1022.9hPa WSW 8.1mph /  13km/h 8.1mph /  13km/h 42% 0.00in /  0mm 104.0 W/m2 CLR
15:06 31.9 °F /  -0.1 °C 11.4 °F /  -11.4 °C 30.21in /  1022.9hPa WNW 10.4mph /  16.7km/h 10.4mph /  16.7km/h 42% 0.00in /  0mm 65.0 W/m2 CLR
15:08 31.9 °F /  -0.1 °C 11.9 °F /  -11.2 °C 30.21in /  1022.9hPa NW 11.5mph /  18.5km/h 11.5mph /  18.5km/h 43% 0.00in /  0mm 90.0 W/m2 CLR
15:13 32.0 °F /  0 °C 11.5 °F /  -11.4 °C 30.21in /  1022.9hPa WNW 11.5mph /  18.5km/h 11.5mph /  18.5km/h 42% 0.00in /  0mm 100.0 W/m2 CLR
15:14 32.0 °F /  0 °C 11.5 °F /  -11.4 °C 30.21in /  1022.9hPa WSW 8.1mph /  13km/h 8.1mph /  13km/h 42% 0.00in /  0mm 116.0 W/m2 CLR
15:19 32.0 °F /  0 °C 12.0 °F /  -11.1 °C 30.21in /  1022.9hPa West 10.4mph /  16.7km/h 10.4mph /  16.7km/h 43% 0.00in /  0mm 165.0 W/m2 CLR
15:21 32.0 °F /  0 °C 12.0 °F /  -11.1 °C 30.21in /  1022.9hPa West 6.9mph /  11.1km/h 6.9mph /  11.1km/h 43% 0.00in /  0mm 156.0 W/m2 CLR
15:22 32.1 °F /  0.1 °C 12.1 °F /  -11.1 °C 30.21in /  1022.9hPa West 9.2mph /  14.8km/h 9.2mph /  14.8km/h 43% 0.00in /  0mm 146.0 W/m2 CLR
15:26 32.0 °F /  0 °C 12.0 °F /  -11.1 °C 30.21in /  1022.9hPa WNW 9.2mph /  14.8km/h 9.2mph /  14.8km/h 43% 0.00in /  0mm 149.0 W/m2 CLR
15:27 32.0 °F /  0 °C 12.0 °F /  -11.1 °C 30.21in /  1022.9hPa West 9.2mph /  14.8km/h 9.2mph /  14.8km/h 43% 0.00in /  0mm 120.0 W/m2 CLR
15:32 31.9 °F /  -0.1 °C 11.9 °F /  -11.2 °C 30.21in /  1022.9hPa West 9.2mph /  14.8km/h 9.2mph /  14.8km/h 43% 0.00in /  0mm 37.0 W/m2 CLR
15:33 31.9 °F /  -0.1 °C 11.9 °F /  -11.2 °C 30.21in /  1022.9hPa West 8.1mph /  13km/h 8.1mph /  13km/h 43% 0.00in /  0mm 37.0 W/m2 CLR
15:35 31.7 °F /  -0.2 °C 11.7 °F /  -11.3 °C 30.21in /  1022.9hPa West 10.4mph /  16.7km/h 10.4mph /  16.7km/h 43% 0.00in /  0mm 35.0 W/m2 CLR
15:38 31.6 °F /  -0.2 °C 12.2 °F /  -11 °C 30.21in /  1022.9hPa West 5.8mph /  9.3km/h 5.8mph /  9.3km/h 44% 0.00in /  0mm 51.0 W/m2 CLR
15:40 31.6 °F /  -0.2 °C 12.2 °F /  -11 °C 30.21in /  1022.9hPa WNW 9.2mph /  14.8km/h 9.2mph /  14.8km/h 44% 0.00in /  0mm 56.0 W/m2 CLR
15:43 31.5 °F /  -0.3 °C 11.5 °F /  -11.4 °C 30.22in /  1023.2hPa WNW 11.5mph /  18.5km/h 11.5mph /  18.5km/h 43% 0.00in /  0mm 33.0 W/m2 CLR
15:45 31.4 °F /  -0.3 °C 12.0 °F /  -11.1 °C 30.22in /  1023.2hPa NW 11.5mph /  18.5km/h 11.5mph /  18.5km/h 44% 0.00in /  0mm 54.0 W/m2 CLR
15:48 31.3 °F /  -0.4 °C 11.9 °F /  -11.2 °C 30.22in /  1023.2hPa WNW 10.4mph /  16.7km/h 10.4mph /  16.7km/h 44% 0.00in /  0mm 88.0 W/m2 CLR
15:53 31.2 °F /  -0.4 °C 11.8 °F /  -11.2 °C 30.21in /  1022.9hPa WNW 9.0mph /  14.5km/h 9.0mph /  14.5km/h 44% 0.00in /  0mm 32.0 W/m2 CLR
15:54 31.2 °F /  -0.4 °C 11.8 °F /  -11.2 °C 30.21in /  1022.9hPa West 9.2mph /  14.8km/h 9.2mph /  14.8km/h 44% 0.00in /  0mm 30.0 W/m2 CLR
15:57 31.1 °F /  -0.5 °C 12.2 °F /  -11 °C 30.21in /  1022.9hPa WNW 9.2mph /  14.8km/h 9.2mph /  14.8km/h 45% 0.00in /  0mm 30.0 W/m2 CLR
15:59 30.9 °F /  -0.6 °C 12.0 °F /  -11.1 °C 30.21in /  1022.9hPa WNW 9.2mph /  14.8km/h 9.2mph /  14.8km/h 45% 0.00in /  0mm 28.0 W/m2 CLR
16:04 30.8 °F /  -0.7 °C 11.9 °F /  -11.2 °C 30.21in /  1022.9hPa WNW 5.8mph /  9.3km/h 5.8mph /  9.3km/h 45% 0.00in /  0mm 30.0 W/m2 CLR
16:10 30.7 °F /  -0.7 °C 12.3 °F /  -10.9 °C 30.22in /  1023.2hPa WNW 10.4mph /  16.7km/h 10.4mph /  16.7km/h 46% 0.00in /  0mm 26.0 W/m2 CLR
16:12 30.7 °F /  -0.7 °C 11.8 °F /  -11.2 °C 30.21in /  1022.9hPa West 8.1mph /  13km/h 8.1mph /  13km/h 45% 0.00in /  0mm 32.0 W/m2 CLR
16:16 30.5 °F /  -0.8 °C 12.2 °F /  -11 °C 30.21in /  1022.9hPa West 9.2mph /  14.8km/h 9.2mph /  14.8km/h 46% 0.00in /  0mm 23.0 W/m2 CLR
16:21 30.3 °F /  -0.9 °C 12.0 °F /  -11.1 °C 30.21in /  1022.9hPa West 9.2mph /  14.8km/h 9.2mph /  14.8km/h 46% 0.00in /  0mm 19.0 W/m2 CLR
16:26 30.2 °F /  -1 °C 12.4 °F /  -10.9 °C 30.21in /  1022.9hPa WNW 6.9mph /  11.1km/h 6.9mph /  11.1km/h 47% 0.00in /  0mm 18.0 W/m2 CLR
16:30 30.2 °F /  -1 °C 12.4 °F /  -10.9 °C 30.21in /  1022.9hPa WNW 4.0mph /  6.4km/h 4.0mph /  6.4km/h 47% 0.00in /  0mm 16.0 W/m2 CLR
16:32 30.1 °F /  -1.1 °C 12.3 °F /  -10.9 °C 30.21in /  1022.9hPa WNW 5.0mph /  8km/h 5.0mph /  8km/h 47% 0.00in /  0mm 14.0 W/m2 CLR
16:37 30.0 °F /  -1.1 °C 12.2 °F /  -11 °C 30.22in /  1023.2hPa WNW 3.5mph /  5.6km/h 3.5mph /  5.6km/h 47% 0.00in /  0mm 12.0 W/m2 CLR
16:41 29.8 °F /  -1.2 °C 12.5 °F /  -10.8 °C 30.22in /  1023.2hPa WNW 3.5mph /  5.6km/h 3.5mph /  5.6km/h 48% 0.00in /  0mm 11.0 W/m2 CLR
16:42 29.8 °F /  -1.2 °C 12.5 °F /  -10.8 °C 30.22in /  1023.2hPa WNW 3.5mph /  5.6km/h 3.5mph /  5.6km/h 48% 0.00in /  0mm 9.0 W/m2 CLR
16:47 29.5 °F /  -1.4 °C 12.2 °F /  -11 °C 30.22in /  1023.2hPa WNW 5.8mph /  9.3km/h 5.8mph /  9.3km/h 48% 0.00in /  0mm 7.0 W/m2 CLR
16:52 29.3 °F /  -1.5 °C 12.5 °F /  -10.8 °C 30.22in /  1023.2hPa West 6.9mph /  11.1km/h 6.9mph /  11.1km/h 49% 0.00in /  0mm 0.0 W/m2 CLR
16:53 29.3 °F /  -1.5 °C 12.5 °F /  -10.8 °C 30.22in /  1023.2hPa West 6.9mph /  11.1km/h 6.9mph /  11.1km/h 49% 0.00in /  0mm 0.0 W/m2 CLR
16:57 29.0 °F /  -1.7 °C 12.2 °F /  -11 °C 30.22in /  1023.2hPa WNW 4.6mph /  7.4km/h 4.6mph /  7.4km/h 49% 0.00in /  0mm 0.0 W/m2 CLR
16:59 29.0 °F /  -1.7 °C 12.2 °F /  -11 °C 30.22in /  1023.2hPa WNW 3.5mph /  5.6km/h 3.5mph /  5.6km/h 49% 0.00in /  0mm 0.0 W/m2 CLR
17:04 28.8 °F /  -1.8 °C 12.5 °F /  -10.8 °C 30.23in /  1023.6hPa West 3.5mph /  5.6km/h 3.5mph /  5.6km/h 50% 0.00in /  0mm 0.0 W/m2 CLR
17:09 28.6 °F /  -1.9 °C 12.3 °F /  -10.9 °C 30.23in /  1023.6hPa West 5.8mph /  9.3km/h 5.8mph /  9.3km/h 50% 0.00in /  0mm 0.0 W/m2 CLR
17:10 28.5 °F /  -1.9 °C 12.2 °F /  -11 °C 30.23in /  1023.6hPa West 3.5mph /  5.6km/h 3.5mph /  5.6km/h 50% 0.00in /  0mm 0.0 W/m2 CLR
17:15 28.4 °F /  -2 °C 12.6 °F /  -10.8 °C 30.23in /  1023.6hPa West 6.0mph /  9.7km/h 6.0mph /  9.7km/h 51% 0.00in /  0mm 0.0 W/m2 CLR
17:16 28.4 °F /  -2 °C 12.6 °F /  -10.8 °C 30.23in /  1023.6hPa West 6.0mph /  9.7km/h 6.0mph /  9.7km/h 51% 0.00in /  0mm 0.0 W/m2 CLR
17:20 28.3 °F /  -2.1 °C 12.5 °F /  -10.8 °C 30.23in /  1023.6hPa West 5.8mph /  9.3km/h 5.8mph /  9.3km/h 51% 0.00in /  0mm 0.0 W/m2 CLR
17:30 28.0 °F /  -2.2 °C 12.6 °F /  -10.8 °C 30.23in /  1023.6hPa West 4.0mph /  6.4km/h 4.0mph /  6.4km/h 52% 0.00in /  0mm 0.0 W/m2 CLR
17:36 27.9 °F /  -2.3 °C 12.5 °F /  -10.8 °C 30.23in /  1023.6hPa West 3.5mph /  5.6km/h 3.5mph /  5.6km/h 52% 0.00in /  0mm 0.0 W/m2 CLR
17:40 27.8 °F /  -2.3 °C 12.4 °F /  -10.9 °C 30.23in /  1023.6hPa West 5.8mph /  9.3km/h 5.8mph /  9.3km/h 52% 0.00in /  0mm 0.0 W/m2 CLR
17:44 27.8 °F /  -2.3 °C 12.4 °F /  -10.9 °C 30.23in /  1023.6hPa WNW 6.9mph /  11.1km/h 6.9mph /  11.1km/h 52% 0.00in /  0mm 0.0 W/m2 CLR
17:49 27.6 °F /  -2.4 °C 12.7 °F /  -10.7 °C 30.23in /  1023.6hPa WNW 3.5mph /  5.6km/h 3.5mph /  5.6km/h 53% 0.00in /  0mm 0.0 W/m2 CLR
17:50 27.6 °F /  -2.4 °C 12.7 °F /  -10.7 °C 30.23in /  1023.6hPa WNW 4.0mph /  6.4km/h 4.0mph /  6.4km/h 53% 0.00in /  0mm 0.0 W/m2 CLR
17:57 27.5 °F /  -2.5 °C 12.6 °F /  -10.8 °C 30.24in /  1023.9hPa WNW 4.0mph /  6.4km/h 4.0mph /  6.4km/h 53% 0.00in /  0mm 0.0 W/m2 CLR
18:02 27.3 °F /  -2.6 °C 12.8 °F /  -10.7 °C 30.24in /  1023.9hPa WNW 4.6mph /  7.4km/h 4.6mph /  7.4km/h 54% 0.00in /  0mm 0.0 W/m2 CLR
18:06 27.2 °F /  -2.7 °C 12.7 °F /  -10.7 °C 30.24in /  1023.9hPa WNW 3.5mph /  5.6km/h 3.5mph /  5.6km/h 54% 0.00in /  0mm 0.0 W/m2 CLR
18:14 27.0 °F /  -2.8 °C 13.0 °F /  -10.6 °C 30.24in /  1023.9hPa WNW 3.5mph /  5.6km/h 3.5mph /  5.6km/h 55% 0.00in /  0mm 0.0 W/m2 CLR
18:15 26.9 °F /  -2.8 °C 12.9 °F /  -10.6 °C 30.24in /  1023.9hPa WNW 3.5mph /  5.6km/h 3.5mph /  5.6km/h 55% 0.00in /  0mm 0.0 W/m2 CLR
18:20 26.8 °F /  -2.9 °C 13.2 °F /  -10.4 °C 30.25in /  1024.3hPa WNW 3.5mph /  5.6km/h 3.5mph /  5.6km/h 56% 0.00in /  0mm 0.0 W/m2 CLR
18:22 26.7 °F /  -2.9 °C 13.1 °F /  -10.5 °C 30.24in /  1023.9hPa WNW 4.6mph /  7.4km/h 4.6mph /  7.4km/h 56% 0.00in /  0mm 0.0 W/m2 CLR
18:26 26.7 °F /  -2.9 °C 13.1 °F /  -10.5 °C 30.24in /  1023.9hPa WNW 3.5mph /  5.6km/h 3.5mph /  5.6km/h 56% 0.00in /  0mm 0.0 W/m2 CLR
18:27 26.6 °F /  -3 °C 13.0 °F /  -10.6 °C 30.25in /  1024.3hPa WNW 3.5mph /  5.6km/h 3.5mph /  5.6km/h 56% 0.00in /  0mm 0.0 W/m2 CLR
18:32 26.5 °F /  -3.1 °C 13.3 °F /  -10.4 °C 30.24in /  1023.9hPa WNW 2.3mph /  3.7km/h 2.3mph /  3.7km/h 57% 0.00in /  0mm 0.0 W/m2 CLR
18:33 26.4 °F /  -3.1 °C 13.2 °F /  -10.4 °C 30.24in /  1023.9hPa WNW 2.3mph /  3.7km/h 2.3mph /  3.7km/h 57% 0.00in /  0mm 0.0 W/m2 CLR
18:38 26.3 °F /  -3.2 °C 13.1 °F /  -10.5 °C 30.24in /  1023.9hPa WNW 2.3mph /  3.7km/h 2.3mph /  3.7km/h 57% 0.00in /  0mm 0.0 W/m2 CLR
18:39 26.2 °F /  -3.2 °C 13.0 °F /  -10.6 °C 30.24in /  1023.9hPa WNW 3.5mph /  5.6km/h 3.5mph /  5.6km/h 57% 0.00in /  0mm 0.0 W/m2 CLR
18:44 26.1 °F /  -3.3 °C 12.9 °F /  -10.6 °C 30.24in /  1023.9hPa WNW 2.3mph /  3.7km/h 2.3mph /  3.7km/h 57% 0.00in /  0mm 0.0 W/m2 CLR
18:45 26.1 °F /  -3.3 °C 12.9 °F /  -10.6 °C 30.24in /  1023.9hPa WNW 2.3mph /  3.7km/h 2.3mph /  3.7km/h 57% 0.00in /  0mm 0.0 W/m2 CLR
18:47 26.0 °F /  -3.3 °C 13.2 °F /  -10.4 °C 30.24in /  1023.9hPa WNW 2.3mph /  3.7km/h 2.3mph /  3.7km/h 58% 0.00in /  0mm 0.0 W/m2 CLR
18:50 25.9 °F /  -3.4 °C 13.1 °F /  -10.5 °C 30.24in /  1023.9hPa WNW 3.5mph /  5.6km/h 3.5mph /  5.6km/h 58% 0.00in /  0mm 0.0 W/m2 CLR
18:54 25.8 °F /  -3.4 °C 13.0 °F /  -10.6 °C 30.25in /  1024.3hPa WNW 3.5mph /  5.6km/h 3.5mph /  5.6km/h 58% 0.00in /  0mm 0.0 W/m2 CLR
18:56 25.7 °F /  -3.5 °C 12.9 °F /  -10.6 °C 30.25in /  1024.3hPa WNW 2.3mph /  3.7km/h 2.3mph /  3.7km/h 58% 0.00in /  0mm 0.0 W/m2 CLR
19:01 25.6 °F /  -3.6 °C 13.2 °F /  -10.4 °C 30.25in /  1024.3hPa WNW 2.3mph /  3.7km/h 2.3mph /  3.7km/h 59% 0.00in /  0mm 0.0 W/m2 CLR
19:02 25.6 °F /  -3.6 °C 13.2 °F /  -10.4 °C 30.25in /  1024.3hPa WNW 2.3mph /  3.7km/h 2.3mph /  3.7km/h 59% 0.00in /  0mm 0.0 W/m2 CLR
19:06 25.5 °F /  -3.6 °C 13.1 °F /  -10.5 °C 30.25in /  1024.3hPa WNW 2.3mph /  3.7km/h 2.3mph /  3.7km/h 59% 0.00in /  0mm 0.0 W/m2 CLR
19:09 25.5 °F /  -3.6 °C 13.1 °F /  -10.5 °C 30.25in /  1024.3hPa WNW 2.3mph /  3.7km/h 2.3mph /  3.7km/h 59% 0.00in /  0mm 0.0 W/m2 CLR
19:12 25.4 °F /  -3.7 °C 13.1 °F /  -10.5 °C 30.25in /  1024.3hPa WNW 2.0mph /  3.2km/h 2.0mph /  3.2km/h 59% 0.00in /  0mm 0.0 W/m2 CLR
19:14 25.4 °F /  -3.7 °C 13.4 °F /  -10.3 °C 30.25in /  1024.3hPa WNW 2.3mph /  3.7km/h 2.3mph /  3.7km/h 60% 0.00in /  0mm 0.0 W/m2 CLR
19:17 25.4 °F /  -3.7 °C 13.4 °F /  -10.3 °C 30.25in /  1024.3hPa WNW 3.5mph /  5.6km/h 3.5mph /  5.6km/h 60% 0.00in /  0mm 0.0 W/m2 CLR
19:22 25.3 °F /  -3.7 °C 13.3 °F /  -10.4 °C 30.25in /  1024.3hPa WNW 3.5mph /  5.6km/h 3.5mph /  5.6km/h 60% 0.00in /  0mm 0.0 W/m2 CLR
19:23 25.3 °F /  -3.7 °C 13.3 °F /  -10.4 °C 30.25in /  1024.3hPa WNW 3.5mph /  5.6km/h 3.5mph /  5.6km/h 60% 0.00in /  0mm 0.0 W/m2 CLR
19:28 25.2 °F /  -3.8 °C 13.2 °F /  -10.4 °C 30.25in /  1024.3hPa WNW 3.5mph /  5.6km/h 3.5mph /  5.6km/h 60% 0.00in /  0mm 0.0 W/m2 CLR
19:29 25.2 °F /  -3.8 °C 13.2 °F /  -10.4 °C 30.25in /  1024.3hPa WNW 3.5mph /  5.6km/h 3.7mph /  6km/h 60% 0.00in /  0mm 0.0 W/m2 CLR
19:34 25.3 °F /  -3.7 °C 13.3 °F /  -10.4 °C 30.26in /  1024.6hPa WNW 3.5mph /  5.6km/h 3.5mph /  5.6km/h 60% 0.00in /  0mm 0.0 W/m2 CLR
19:35 25.3 °F /  -3.7 °C 13.3 °F /  -10.4 °C 30.25in /  1024.3hPa WNW 3.5mph /  5.6km/h 3.5mph /  5.6km/h 60% 0.00in /  0mm 0.0 W/m2 CLR
19:40 25.3 °F /  -3.7 °C 13.3 °F /  -10.4 °C 30.26in /  1024.6hPa WNW 4.6mph /  7.4km/h 5.1mph /  8.2km/h 60% 0.00in /  0mm 0.0 W/m2 CLR
19:45 25.4 °F /  -3.7 °C 13.8 °F /  -10.1 °C 30.26in /  1024.6hPa WNW 8.1mph /  13km/h 8.1mph /  13km/h 61% 0.00in /  0mm 0.0 W/m2 CLR
19:46 25.3 °F /  -3.7 °C 13.7 °F /  -10.2 °C 30.26in /  1024.6hPa WNW 8.1mph /  13km/h 8.1mph /  13km/h 61% 0.00in /  0mm 0.0 W/m2 CLR
19:51 25.3 °F /  -3.7 °C 13.7 °F /  -10.2 °C 30.26in /  1024.6hPa WNW 4.6mph /  7.4km/h 4.6mph /  7.4km/h 61% 0.00in /  0mm 0.0 W/m2 CLR
19:56 25.2 °F /  -3.8 °C 13.6 °F /  -10.2 °C 30.26in /  1024.6hPa NW 4.6mph /  7.4km/h 4.6mph /  7.4km/h 61% 0.00in /  0mm 0.0 W/m2 CLR
19:57 25.2 °F /  -3.8 °C 13.6 °F /  -10.2 °C 30.26in /  1024.6hPa NW 4.6mph /  7.4km/h 4.6mph /  7.4km/h 61% 0.00in /  0mm 0.0 W/m2 CLR
20:02 25.1 °F /  -3.8 °C 13.5 °F /  -10.3 °C 30.26in /  1024.6hPa NW 3.5mph /  5.6km/h 3.5mph /  5.6km/h 61% 0.00in /  0mm 0.0 W/m2 CLR
20:04 25.0 °F /  -3.9 °C 13.8 °F /  -10.1 °C 30.26in /  1024.6hPa NNW 4.0mph /  6.4km/h 4.0mph /  6.4km/h 62% 0.00in /  0mm 0.0 W/m2 CLR
20:07 24.9 °F /  -3.9 °C 13.7 °F /  -10.2 °C 30.27in /  1024.9hPa NW 3.5mph /  5.6km/h 3.5mph /  5.6km/h 62% 0.00in /  0mm 0.0 W/m2 CLR
20:12 24.9 °F /  -3.9 °C 13.7 °F /  -10.2 °C 30.27in /  1024.9hPa NW 4.6mph /  7.4km/h 4.6mph /  7.4km/h 62% 0.00in /  0mm 0.0 W/m2 CLR
20:14 24.8 °F /  -4 °C 13.6 °F /  -10.2 °C 30.27in /  1024.9hPa NW 3.5mph /  5.6km/h 3.5mph /  5.6km/h 62% 0.00in /  0mm 0.0 W/m2 CLR
20:18 24.8 °F /  -4 °C 13.6 °F /  -10.2 °C 30.27in /  1024.9hPa NW 4.0mph /  6.4km/h 4.0mph /  6.4km/h 62% 0.00in /  0mm 0.0 W/m2 CLR
20:19 24.7 °F /  -4.1 °C 13.5 °F /  -10.3 °C 30.27in /  1024.9hPa NW 10.0mph /  16.1km/h 10.0mph /  16.1km/h 62% 0.00in /  0mm 0.0 W/m2 CLR
20:20 24.7 °F /  -4.1 °C 13.5 °F /  -10.3 °C 30.27in /  1024.9hPa NW 10.4mph /  16.7km/h 10.4mph /  16.7km/h 62% 0.00in /  0mm 0.0 W/m2 CLR
20:25 24.6 °F /  -4.1 °C 13.8 °F /  -10.1 °C 30.27in /  1024.9hPa NW 3.5mph /  5.6km/h 3.5mph /  5.6km/h 63% 0.00in /  0mm 0.0 W/m2 CLR
20:30 24.5 °F /  -4.2 °C 13.7 °F /  -10.2 °C 30.27in /  1024.9hPa NW 2.3mph /  3.7km/h 2.3mph /  3.7km/h 63% 0.00in /  0mm 0.0 W/m2 CLR
20:31 24.4 °F /  -4.2 °C 13.6 °F /  -10.2 °C 30.27in /  1024.9hPa NW 3.5mph /  5.6km/h 3.5mph /  5.6km/h 63% 0.00in /  0mm 0.0 W/m2 CLR
20:36 24.2 °F /  -4.3 °C 13.4 °F /  -10.3 °C 30.27in /  1024.9hPa NW 3.5mph /  5.6km/h 3.5mph /  5.6km/h 63% 0.00in /  0mm 0.0 W/m2 CLR
20:37 24.2 °F /  -4.3 °C 13.4 °F /  -10.3 °C 30.27in /  1024.9hPa NW 3.5mph /  5.6km/h 3.5mph /  5.6km/h 63% 0.00in /  0mm 0.0 W/m2 CLR
20:42 24.1 °F /  -4.4 °C 13.7 °F /  -10.2 °C 30.27in /  1024.9hPa NW 3.5mph /  5.6km/h 3.5mph /  5.6km/h 64% 0.00in /  0mm 0.0 W/m2 CLR
20:46 24.0 °F /  -4.4 °C 13.6 °F /  -10.2 °C 30.27in /  1024.9hPa NW 3.5mph /  5.6km/h 3.5mph /  5.6km/h 64% 0.00in /  0mm 0.0 W/m2 CLR
20:48 23.9 °F /  -4.5 °C 13.5 °F /  -10.3 °C 30.27in /  1024.9hPa NW 3.0mph /  4.8km/h 3.0mph /  4.8km/h 64% 0.00in /  0mm 0.0 W/m2 CLR
20:55 23.8 °F /  -4.6 °C 13.4 °F /  -10.3 °C 30.27in /  1024.9hPa North 3.5mph /  5.6km/h 3.5mph /  5.6km/h 64% 0.00in /  0mm 0.0 W/m2 CLR
21:00 23.6 °F /  -4.7 °C 13.2 °F /  -10.4 °C 30.27in /  1024.9hPa NW 3.5mph /  5.6km/h 3.5mph /  5.6km/h 64% 0.00in /  0mm 0.0 W/m2 CLR
21:05 23.5 °F /  -4.7 °C 13.5 °F /  -10.3 °C 30.27in /  1024.9hPa NNE 3.5mph /  5.6km/h 3.5mph /  5.6km/h 65% 0.00in /  0mm 0.0 W/m2 CLR
21:09 23.5 °F /  -4.7 °C 13.5 °F /  -10.3 °C 30.27in /  1024.9hPa NNW 3.5mph /  5.6km/h 3.5mph /  5.6km/h 65% 0.00in /  0mm 0.0 W/m2 CLR
21:12 23.4 °F /  -4.8 °C 13.4 °F /  -10.3 °C 30.27in /  1024.9hPa NNW 2.3mph /  3.7km/h 2.3mph /  3.7km/h 65% 0.00in /  0mm 0.0 W/m2 CLR
21:17 23.3 °F /  -4.8 °C 13.3 °F /  -10.4 °C 30.27in /  1024.9hPa NNW 2.3mph /  3.7km/h 2.3mph /  3.7km/h 65% 0.00in /  0mm 0.0 W/m2 CLR
21:19 23.3 °F /  -4.8 °C 13.3 °F /  -10.4 °C 30.27in /  1024.9hPa NNW 2.3mph /  3.7km/h 2.3mph /  3.7km/h 65% 0.00in /  0mm 0.0 W/m2 CLR
21:22 23.2 °F /  -4.9 °C 13.2 °F /  -10.4 °C 30.28in /  1025.3hPa NW 6.9mph /  11.1km/h 6.9mph /  11.1km/h 65% 0.00in /  0mm 0.0 W/m2 CLR
21:25 23.1 °F /  -4.9 °C 13.1 °F /  -10.5 °C 30.28in /  1025.3hPa NW 2.3mph /  3.7km/h 2.3mph /  3.7km/h 65% 0.00in /  0mm 0.0 W/m2 CLR
21:30 23.0 °F /  -5 °C 13.0 °F /  -10.6 °C 30.28in /  1025.3hPa NW 2.3mph /  3.7km/h 2.3mph /  3.7km/h 65% 0.00in /  0mm 0.0 W/m2 CLR
21:40 22.8 °F /  -5.1 °C 13.1 °F /  -10.5 °C 30.27in /  1024.9hPa NW 2.3mph /  3.7km/h 2.3mph /  3.7km/h 66% 0.00in /  0mm 0.0 W/m2 CLR
21:42 22.7 °F /  -5.2 °C 13.0 °F /  -10.6 °C 30.28in /  1025.3hPa NW 1.2mph /  1.9km/h 1.2mph /  1.9km/h 66% 0.00in /  0mm 0.0 W/m2 CLR
21:47 22.6 °F /  -5.2 °C 12.9 °F /  -10.6 °C 30.28in /  1025.3hPa NW 2.3mph /  3.7km/h 2.3mph /  3.7km/h 66% 0.00in /  0mm 0.0 W/m2 CLR
21:48 22.5 °F /  -5.3 °C 12.8 °F /  -10.7 °C 30.27in /  1024.9hPa NW 1.2mph /  1.9km/h 1.2mph /  1.9km/h 66% 0.00in /  0mm 0.0 W/m2 CLR
21:50 22.5 °F /  -5.3 °C 13.2 °F /  -10.4 °C 30.27in /  1024.9hPa Calm     67% 0.00in /  0mm 0.0 W/m2 CLR
21:55 22.4 °F /  -5.3 °C 13.1 °F /  -10.5 °C 30.27in /  1024.9hPa NW 2.3mph /  3.7km/h 2.3mph /  3.7km/h 67% 0.00in /  0mm 0.0 W/m2 CLR
21:56 22.3 °F /  -5.4 °C 13.0 °F /  -10.6 °C 30.27in /  1024.9hPa NW 2.3mph /  3.7km/h 2.3mph /  3.7km/h 67% 0.00in /  0mm 0.0 W/m2 CLR
22:00 22.1 °F /  -5.5 °C 12.8 °F /  -10.7 °C 30.27in /  1024.9hPa NW 2.3mph /  3.7km/h 2.3mph /  3.7km/h 67% 0.00in /  0mm 0.0 W/m2 CLR
22:03 22.1 °F /  -5.5 °C 13.1 °F /  -10.5 °C 30.28in /  1025.3hPa Calm     68% 0.00in /  0mm 0.0 W/m2 CLR
22:07 21.9 °F /  -5.6 °C 13.0 °F /  -10.6 °C 30.27in /  1024.9hPa Calm     68% 0.00in /  0mm 0.0 W/m2 CLR
22:08 21.9 °F /  -5.6 °C 13.0 °F /  -10.6 °C 30.28in /  1025.3hPa Calm     68% 0.00in /  0mm 0.0 W/m2 CLR
22:13 21.8 °F /  -5.7 °C 12.9 °F /  -10.6 °C 30.27in /  1024.9hPa Calm     68% 0.00in /  0mm 0.0 W/m2 CLR
22:14 21.7 °F /  -5.7 °C 12.8 °F /  -10.7 °C 30.27in /  1024.9hPa Calm     68% 0.00in /  0mm 0.0 W/m2 CLR
22:15 21.7 °F /  -5.7 °C 12.8 °F /  -10.7 °C 30.27in /  1024.9hPa NW 2.3mph /  3.7km/h 2.3mph /  3.7km/h 68% 0.00in /  0mm 0.0 W/m2 CLR
22:16 21.7 °F /  -5.7 °C 12.8 °F /  -10.7 °C 30.27in /  1024.9hPa NW 2.3mph /  3.7km/h 2.3mph /  3.7km/h 68% 0.00in /  0mm 0.0 W/m2 CLR
22:17 21.6 °F /  -5.8 °C 12.7 °F /  -10.7 °C 30.27in /  1024.9hPa NW 1.2mph /  1.9km/h 1.2mph /  1.9km/h 68% 0.00in /  0mm 0.0 W/m2 CLR
22:18 21.5 °F /  -5.8 °C 12.9 °F /  -10.6 °C 30.27in /  1024.9hPa NW 2.3mph /  3.7km/h 2.3mph /  3.7km/h 69% 0.00in /  0mm 0.0 W/m2 CLR
22:22 21.5 °F /  -5.8 °C 12.9 °F /  -10.6 °C 30.27in /  1024.9hPa NW 2.3mph /  3.7km/h 2.3mph /  3.7km/h 69% 0.00in /  0mm 0.0 W/m2 CLR
22:27 21.3 °F /  -5.9 °C 12.7 °F /  -10.7 °C 30.27in /  1024.9hPa Calm     69% 0.00in /  0mm 0.0 W/m2 CLR
22:33 21.2 °F /  -6 °C 12.9 °F /  -10.6 °C 30.27in /  1024.9hPa NW 1.2mph /  1.9km/h 1.2mph /  1.9km/h 70% 0.00in /  0mm 0.0 W/m2 CLR
22:36 21.0 °F /  -6.1 °C 12.7 °F /  -10.7 °C 30.27in /  1024.9hPa Calm     70% 0.00in /  0mm 0.0 W/m2 CLR
22:41 20.9 °F /  -6.2 °C 12.6 °F /  -10.8 °C 30.27in /  1024.9hPa Calm     70% 0.00in /  0mm 0.0 W/m2 CLR
22:42 20.9 °F /  -6.2 °C 12.6 °F /  -10.8 °C 30.27in /  1024.9hPa NW 1.2mph /  1.9km/h 1.2mph /  1.9km/h 70% 0.00in /  0mm 0.0 W/m2 CLR
22:43 20.8 °F /  -6.2 °C 12.6 °F /  -10.8 °C 30.27in /  1024.9hPa NW 1.2mph /  1.9km/h   70% 0.00in /  0mm 0.0 W/m2 CLR
22:44 20.8 °F /  -6.2 °C 12.6 °F /  -10.8 °C 30.27in /  1024.9hPa Calm     70% 0.00in /  0mm 0.0 W/m2 CLR
22:49 20.7 °F /  -6.3 °C 12.8 °F /  -10.7 °C 30.27in /  1024.9hPa NW 1.2mph /  1.9km/h 1.2mph /  1.9km/h 71% 0.00in /  0mm 0.0 W/m2 CLR
22:50 20.6 °F /  -6.3 °C 12.7 °F /  -10.7 °C 30.27in /  1024.9hPa NW 1.2mph /  1.9km/h 1.2mph /  1.9km/h 71% 0.00in /  0mm 0.0 W/m2 CLR
22:52 20.6 °F /  -6.3 °C 12.7 °F /  -10.7 °C 30.27in /  1024.9hPa NW 1.2mph /  1.9km/h   71% 0.00in /  0mm 0.0 W/m2 CLR
22:56 20.5 °F /  -6.4 °C 12.6 °F /  -10.8 °C 30.27in /  1024.9hPa NW 1.2mph /  1.9km/h   71% 0.00in /  0mm 0.0 W/m2 CLR
22:57 20.5 °F /  -6.4 °C 12.6 °F /  -10.8 °C 30.27in /  1024.9hPa Calm     71% 0.00in /  0mm 0.0 W/m2 CLR
23:02 20.3 °F /  -6.5 °C 12.4 °F /  -10.9 °C 30.27in /  1024.9hPa Calm     71% 0.00in /  0mm 0.0 W/m2 CLR
23:03 20.3 °F /  -6.5 °C 12.4 °F /  -10.9 °C 30.27in /  1024.9hPa Calm     71% 0.00in /  0mm 0.0 W/m2 CLR
23:04 20.3 °F /  -6.5 °C 12.4 °F /  -10.9 °C 30.27in /  1024.9hPa Calm     71% 0.00in /  0mm 0.0 W/m2 CLR
23:09 20.1 °F /  -6.6 °C 12.5 °F /  -10.8 °C 30.27in /  1024.9hPa NW 1.2mph /  1.9km/h   72% 0.00in /  0mm 0.0 W/m2 CLR
23:14 20.0 °F /  -6.7 °C 12.4 °F /  -10.9 °C 30.27in /  1024.9hPa NW 1.2mph /  1.9km/h 1.2mph /  1.9km/h 72% 0.00in /  0mm 0.0 W/m2 CLR
23:16 19.9 °F /  -6.7 °C 12.3 °F /  -10.9 °C 30.27in /  1024.9hPa Calm     72% 0.00in /  0mm 0.0 W/m2 CLR
23:19 19.9 °F /  -6.7 °C 12.3 °F /  -10.9 °C 30.27in /  1024.9hPa Calm     72% 0.00in /  0mm 0.0 W/m2 CLR
23:21 19.8 °F /  -6.8 °C 12.2 °F /  -11 °C 30.27in /  1024.9hPa NW 1.2mph /  1.9km/h 1.2mph /  1.9km/h 72% 0.00in /  0mm 0.0 W/m2 CLR
23:26 19.7 °F /  -6.8 °C 12.4 °F /  -10.9 °C 30.27in /  1024.9hPa NW 2.3mph /  3.7km/h 2.3mph /  3.7km/h 73% 0.00in /  0mm 0.0 W/m2 CLR
23:30 19.6 °F /  -6.9 °C 12.3 °F /  -10.9 °C 30.27in /  1024.9hPa NW 2.3mph /  3.7km/h 2.3mph /  3.7km/h 73% 0.00in /  0mm 0.0 W/m2 CLR
23:35 19.4 °F /  -7 °C 12.2 °F /  -11 °C 30.27in /  1024.9hPa NW 1.2mph /  1.9km/h 1.2mph /  1.9km/h 73% 0.00in /  0mm 0.0 W/m2 CLR
23:36 19.4 °F /  -7 °C 12.2 °F /  -11 °C 30.27in /  1024.9hPa NW 1.2mph /  1.9km/h 1.2mph /  1.9km/h 73% 0.00in /  0mm 0.0 W/m2 CLR
23:38 19.4 °F /  -7 °C 12.5 °F /  -10.8 °C 30.27in /  1024.9hPa NW 1.0mph /  1.6km/h 1.0mph /  1.6km/h 74% 0.00in /  0mm 0.0 W/m2 CLR
23:42 19.3 °F /  -7.1 °C 12.4 °F /  -10.9 °C 30.27in /  1024.9hPa NW 1.2mph /  1.9km/h 1.2mph /  1.9km/h 74% 0.00in /  0mm 0.0 W/m2 CLR
23:44 19.2 °F /  -7.1 °C 12.3 °F /  -10.9 °C 30.27in /  1024.9hPa NW 1.2mph /  1.9km/h 1.2mph /  1.9km/h 74% 0.00in /  0mm 0.0 W/m2 CLR
23:48 19.1 °F /  -7.2 °C 12.2 °F /  -11 °C 30.27in /  1024.9hPa Calm     74% 0.00in /  0mm 0.0 W/m2 CLR
23:53 19.0 °F /  -7.2 °C 12.4 °F /  -10.9 °C 30.26in /  1024.6hPa NW 2.3mph /  3.7km/h 2.3mph /  3.7km/h 75% 0.00in /  0mm 0.0 W/m2 CLR
23:56 18.8 °F /  -7.3 °C 12.2 °F /  -11 °C 30.26in /  1024.6hPa NW 2.3mph /  3.7km/h   75% 0.00in /  0mm 0.0 W/m2 CLR
23:59 18.8 °F /  -7.3 °C 12.2 °F /  -11 °C 30.26in /  1024.6hPa NW 2.3mph /  3.7km/h 2.3mph /  3.7km/h 75% 0.00in /  0mm 0.0 W/m2 CLR
Bruceton, TN. NWS Weather Forecast
Compliments of:  Weather Underground - 6 mb

Interesting Weather Facts
SNOW FALL
Mount Rainier, Washington recorded the most snowfall in a 1-year period of 102 feet (31.1 meters) from 19 February 1971 to 18 February 1972.